Wetterdaten: Mittwoch, 09.10.2019
Datum Zeit Temp. Aussen Temp. o. S. Temp +5cm Feuchte Auss Luftdruck Regen Sonnenschein Regendauer Solar Windben Empfang
09.10.2019 00:00 12,4 C 11,7 C 11,1 C 96 % 1008,0 hPa 0,0 l/m 0 min 0 min 0 W/m 16,1 km/h (3 Bft) 97,87 %
09.10.2019 00:02 12,4 C 11,7 C 11,1 C 96 % 1008,0 hPa 0,0 l/m 0 min 0 min 0 W/m 12,9 km/h (3 Bft) 97,73 %
09.10.2019 00:04 12,4 C 11,7 C 11,1 C 96 % 1008,1 hPa 0,0 l/m 0 min 0 min 0 W/m 16,1 km/h (3 Bft) 97,83 %
09.10.2019 00:08 12,3 C 11,7 C 11,1 C 96 % 1008,1 hPa 0,0 l/m 0 min 0 min 0 W/m 19,3 km/h (3 Bft) 97,87 %
09.10.2019 00:10 12,3 C 11,7 C 11,1 C 96 % 1008,1 hPa 0,0 l/m 0 min 0 min 0 W/m 12,9 km/h (3 Bft) 97,87 %
09.10.2019 00:12 12,3 C 11,7 C 11,1 C 96 % 1008,2 hPa 0,0 l/m 0 min 0 min 0 W/m 16,1 km/h (3 Bft) 97,87 %
09.10.2019 00:14 12,3 C 11,7 C 11,1 C 96 % 1008,1 hPa 0,0 l/m 0 min 0 min 0 W/m 16,1 km/h (3 Bft) 97,87 %
09.10.2019 00:16 12,3 C 11,7 C 11,1 C 96 % 1008,1 hPa 0,0 l/m 0 min 0 min 0 W/m 16,1 km/h (3 Bft) 97,78 %
09.10.2019 00:18 12,3 C 11,7 C 11,1 C 96 % 1008,2 hPa 0,0 l/m 0 min 0 min 0 W/m 19,3 km/h (3 Bft) 95,74 %
09.10.2019 00:20 12,3 C 11,7 C 11,1 C 96 % 1008,2 hPa 0,0 l/m 0 min 0 min 0 W/m 12,9 km/h (3 Bft) 95,74 %
09.10.2019 00:22 12,3 C 11,7 C 11,1 C 96 % 1008,1 hPa 0,0 l/m 0 min 0 min 0 W/m 6,4 km/h (2 Bft) 95,74 %
09.10.2019 00:24 12,3 C 11,7 C 11,1 C 96 % 1008,1 hPa 0,0 l/m 0 min 0 min 0 W/m 6,4 km/h (2 Bft) 93,62 %
09.10.2019 00:26 12,3 C 11,7 C 11,1 C 96 % 1008,1 hPa 0,0 l/m 0 min 0 min 0 W/m 12,9 km/h (3 Bft) 95,65 %
09.10.2019 00:28 12,3 C 11,7 C 11,1 C 96 % 1008,1 hPa 0,0 l/m 0 min 0 min 0 W/m 29,0 km/h (5 Bft) 95,74 %
09.10.2019 00:30 12,3 C 11,7 C 11,1 C 96 % 1008,2 hPa 0,0 l/m 0 min 0 min 0 W/m 19,3 km/h (3 Bft) 95,74 %
09.10.2019 00:32 12,3 C 11,7 C 11,1 C 96 % 1008,1 hPa 0,0 l/m 0 min 0 min 0 W/m 12,9 km/h (3 Bft) 95,74 %
09.10.2019 00:34 12,3 C 11,7 C 11,1 C 96 % 1008,1 hPa 0,0 l/m 0 min 0 min 0 W/m 12,9 km/h (3 Bft) 95,74 %
09.10.2019 00:36 12,3 C 11,7 C 11,1 C 96 % 1008,0 hPa 0,0 l/m 0 min 0 min 0 W/m 16,1 km/h (3 Bft) 95,74 %
09.10.2019 00:38 12,3 C 11,7 C 11,1 C 96 % 1008,0 hPa 0,0 l/m 0 min 0 min 0 W/m 16,1 km/h (3 Bft) 95,65 %
09.10.2019 00:40 12,3 C 11,7 C 11,1 C 96 % 1008,1 hPa 0,0 l/m 0 min 0 min 0 W/m 16,1 km/h (3 Bft) 97,87 %
09.10.2019 00:42 12,3 C 11,7 C 11,1 C 96 % 1008,1 hPa 0,0 l/m 0 min 0 min 0 W/m 12,9 km/h (3 Bft) 95,74 %
09.10.2019 00:44 12,3 C 11,7 C 11,1 C 96 % 1008,1 hPa 0,0 l/m 0 min 0 min 0 W/m 12,9 km/h (3 Bft) 97,87 %
09.10.2019 00:46 12,3 C 11,7 C 11,1 C 96 % 1008,2 hPa 0,0 l/m 0 min 0 min 0 W/m 16,1 km/h (3 Bft) 97,87 %
09.10.2019 00:48 12,3 C 11,7 C 11,1 C 96 % 1008,1 hPa 0,0 l/m 0 min 0 min 0 W/m 16,1 km/h (3 Bft) 97,87 %
09.10.2019 00:50 12,3 C 11,7 C 11,1 C 96 % 1008,2 hPa 0,0 l/m 0 min 0 min 0 W/m 16,1 km/h (3 Bft) 97,83 %
09.10.2019 00:52 12,3 C 11,7 C 11,1 C 96 % 1008,1 hPa 0,0 l/m 0 min 0 min 0 W/m 16,1 km/h (3 Bft) 95,74 %
09.10.2019 00:54 12,4 C 11,7 C 11,1 C 96 % 1008,2 hPa 0,0 l/m 0 min 0 min 0 W/m 12,9 km/h (3 Bft) 97,83 %
09.10.2019 00:56 12,4 C 11,7 C 11,1 C 96 % 1008,3 hPa 0,0 l/m 0 min 0 min 0 W/m 19,3 km/h (3 Bft) 93,62 %
09.10.2019 00:58 12,4 C 11,7 C 11,1 C 96 % 1008,3 hPa 0,0 l/m 0 min 0 min 0 W/m 19,3 km/h (3 Bft) 97,87 %
09.10.2019 01:00 12,4 C 11,7 C 11,1 C 96 % 1008,2 hPa 0,0 l/m 0 min 0 min 0 W/m 16,1 km/h (3 Bft) 95,74 %
09.10.2019 01:02 12,4 C 11,7 C 11,1 C 95 % 1008,3 hPa 0,0 l/m 0 min 0 min 0 W/m 12,9 km/h (3 Bft) 97,83 %
09.10.2019 01:04 12,4 C 11,7 C 11,1 C 95 % 1008,3 hPa 0,0 l/m 0 min 0 min 0 W/m 9,7 km/h (2 Bft) 95,74 %
09.10.2019 01:06 12,4 C 11,7 C 11,7 C 95 % 1008,3 hPa 0,0 l/m 0 min 0 min 0 W/m 16,1 km/h (3 Bft) 95,74 %
09.10.2019 01:08 12,4 C 11,7 C 11,1 C 95 % 1008,4 hPa 0,0 l/m 0 min 0 min 0 W/m 22,5 km/h (4 Bft) 95,74 %
09.10.2019 01:10 12,4 C 11,7 C 11,1 C 95 % 1008,3 hPa 0,0 l/m 0 min 0 min 0 W/m 25,7 km/h (4 Bft) 95,74 %
09.10.2019 01:12 12,4 C 11,7 C 11,1 C 95 % 1008,4 hPa 0,0 l/m 0 min 0 min 0 W/m 19,3 km/h (3 Bft) 97,83 %
09.10.2019 01:14 12,4 C 11,7 C 11,1 C 95 % 1008,3 hPa 0,0 l/m 0 min 0 min 0 W/m 12,9 km/h (3 Bft) 95,74 %
09.10.2019 01:16 12,4 C 11,7 C 11,1 C 95 % 1008,4 hPa 0,0 l/m 0 min 0 min 0 W/m 19,3 km/h (3 Bft) 97,87 %
09.10.2019 01:18 12,4 C 11,7 C 11,1 C 95 % 1008,4 hPa 0,0 l/m 0 min 0 min 0 W/m 9,7 km/h (2 Bft) 93,62 %
09.10.2019 01:20 12,4 C 11,7 C 11,1 C 95 % 1008,4 hPa 0,0 l/m 0 min 0 min 0 W/m 19,3 km/h (3 Bft) 97,87 %
09.10.2019 01:22 12,4 C 11,7 C 11,1 C 95 % 1008,4 hPa 0,0 l/m 0 min 0 min 0 W/m 19,3 km/h (3 Bft) 95,74 %
09.10.2019 01:24 12,4 C 11,7 C 11,1 C 95 % 1008,4 hPa 0,0 l/m 0 min 0 min 0 W/m 12,9 km/h (3 Bft) 97,87 %
09.10.2019 01:26 12,4 C 11,7 C 11,1 C 94 % 1008,4 hPa 0,0 l/m 0 min 0 min 0 W/m 16,1 km/h (3 Bft) 97,83 %
09.10.2019 01:28 12,4 C 11,7 C 11,1 C 94 % 1008,5 hPa 0,0 l/m 0 min 0 min 0 W/m 12,9 km/h (3 Bft) 97,87 %
09.10.2019 01:30 12,4 C 11,7 C 11,1 C 94 % 1008,5 hPa 0,0 l/m 0 min 0 min 0 W/m 12,9 km/h (3 Bft) 97,87 %
09.10.2019 01:32 12,4 C 11,7 C 11,1 C 94 % 1008,5 hPa 0,0 l/m 0 min 0 min 0 W/m 12,9 km/h (3 Bft) 95,74 %
09.10.2019 01:34 12,4 C 11,7 C 11,1 C 94 % 1008,5 hPa 0,0 l/m 0 min 0 min 0 W/m 16,1 km/h (3 Bft) 97,87 %
09.10.2019 01:36 12,4 C 11,7 C 11,1 C 94 % 1008,6 hPa 0,0 l/m 0 min 0 min 0 W/m 9,7 km/h (2 Bft) 97,83 %
09.10.2019 01:38 12,3 C 11,1 C 11,1 C 94 % 1008,5 hPa 0,0 l/m 0 min 0 min 0 W/m 19,3 km/h (3 Bft) 100,00 %
09.10.2019 01:40 12,3 C 11,7 C 11,1 C 94 % 1008,5 hPa 0,0 l/m 0 min 0 min 0 W/m 19,3 km/h (3 Bft) 100,00 %
09.10.2019 01:42 12,3 C 11,7 C 11,1 C 94 % 1008,5 hPa 0,0 l/m 0 min 0 min 0 W/m 12,9 km/h (3 Bft) 100,00 %
09.10.2019 01:44 12,3 C 11,7 C 11,1 C 94 % 1008,4 hPa 0,0 l/m 0 min 0 min 0 W/m 19,3 km/h (3 Bft) 100,00 %
09.10.2019 01:46 12,3 C 11,7 C 11,1 C 94 % 1008,4 hPa 0,0 l/m 0 min 0 min 0 W/m 12,9 km/h (3 Bft) 100,00 %
09.10.2019 01:48 12,3 C 11,7 C 11,1 C 94 % 1008,5 hPa 0,0 l/m 0 min 0 min 0 W/m 16,1 km/h (3 Bft) 100,00 %
09.10.2019 01:50 12,3 C 11,7 C 11,1 C 94 % 1008,5 hPa 0,0 l/m 0 min 0 min 0 W/m 16,1 km/h (3 Bft) 100,00 %
09.10.2019 01:52 12,3 C 11,7 C 11,1 C 94 % 1008,5 hPa 0,0 l/m 0 min 0 min 0 W/m 16,1 km/h (3 Bft) 100,00 %
09.10.2019 01:54 12,3 C 11,7 C 11,1 C 94 % 1008,5 hPa 0,0 l/m 0 min 0 min 0 W/m 19,3 km/h (3 Bft) 97,87 %
09.10.2019 01:56 12,3 C 11,7 C 11,1 C 94 % 1008,6 hPa 0,0 l/m 0 min 0 min 0 W/m 12,9 km/h (3 Bft) 97,87 %
09.10.2019 01:58 12,3 C 11,7 C 11,1 C 94 % 1008,5 hPa 0,0 l/m 0 min 0 min 0 W/m 12,9 km/h (3 Bft) 100,00 %
09.10.2019 02:00 12,3 C 11,7 C 11,1 C 94 % 1008,5 hPa 0,0 l/m 0 min 0 min 0 W/m 12,9 km/h (3 Bft) 100,00 %
09.10.2019 02:02 12,3 C 11,7 C 11,1 C 94 % 1008,6 hPa 0,0 l/m 0 min 0 min 0 W/m 12,9 km/h (3 Bft) 95,74 %
09.10.2019 02:04 12,3 C 11,7 C 11,1 C 94 % 1008,6 hPa 0,0 l/m 0 min 0 min 0 W/m 6,4 km/h (2 Bft) 100,00 %
09.10.2019 02:06 12,2 C 11,1 C 11,1 C 94 % 1008,7 hPa 0,0 l/m 0 min 0 min 0 W/m 16,1 km/h (3 Bft) 100,00 %
09.10.2019 02:08 12,2 C 11,1 C 10,6 C 94 % 1008,6 hPa 0,0 l/m 0 min 0 min 0 W/m 9,7 km/h (2 Bft) 100,00 %
09.10.2019 02:10 12,2 C 11,1 C 10,6 C 94 % 1008,7 hPa 0,0 l/m 0 min 0 min 0 W/m 25,7 km/h (4 Bft) 100,00 %
09.10.2019 02:12 12,2 C 11,1 C 11,1 C 94 % 1008,7 hPa 0,0 l/m 0 min 0 min 0 W/m 16,1 km/h (3 Bft) 97,83 %
09.10.2019 02:14 12,2 C 11,1 C 10,6 C 94 % 1008,7 hPa 0,0 l/m 0 min 0 min 0 W/m 6,4 km/h (2 Bft) 97,87 %
09.10.2019 02:16 12,2 C 11,1 C 10,6 C 94 % 1008,7 hPa 0,0 l/m 0 min 0 min 0 W/m 12,9 km/h (3 Bft) 100,00 %
09.10.2019 02:18 12,2 C 11,1 C 10,6 C 94 % 1008,7 hPa 0,0 l/m 0 min 0 min 0 W/m 6,4 km/h (2 Bft) 100,00 %
09.10.2019 02:20 12,2 C 11,1 C 10,6 C 94 % 1008,8 hPa 0,0 l/m 0 min 0 min 0 W/m 16,1 km/h (3 Bft) 97,87 %
09.10.2019 02:22 12,2 C 11,1 C 10,6 C 94 % 1008,8 hPa 0,0 l/m 0 min 0 min 0 W/m 16,1 km/h (3 Bft) 97,83 %
09.10.2019 02:24 12,2 C 11,1 C 10,6 C 94 % 1008,7 hPa 0,0 l/m 0 min 0 min 0 W/m 16,1 km/h (3 Bft) 97,87 %
09.10.2019 02:26 12,2 C 11,7 C 11,1 C 94 % 1008,7 hPa 0,0 l/m 0 min 0 min 0 W/m 16,1 km/h (3 Bft) 97,87 %
09.10.2019 02:28 12,2 C 11,7 C 11,1 C 94 % 1008,8 hPa 0,0 l/m 0 min 0 min 0 W/m 9,7 km/h (2 Bft) 100,00 %
09.10.2019 02:30 12,2 C 11,7 C 11,1 C 94 % 1008,8 hPa 0,0 l/m 0 min 0 min 0 W/m 19,3 km/h (3 Bft) 95,74 %
09.10.2019 02:32 12,2 C 11,1 C 11,1 C 94 % 1008,7 hPa 0,0 l/m 0 min 0 min 0 W/m 9,7 km/h (2 Bft) 95,74 %
09.10.2019 02:34 12,2 C 11,1 C 10,6 C 94 % 1008,7 hPa 0,0 l/m 0 min 0 min 0 W/m 12,9 km/h (3 Bft) 95,65 %
09.10.2019 02:36 12,2 C 11,1 C 10,6 C 94 % 1008,7 hPa 0,0 l/m 0 min 0 min 0 W/m 12,9 km/h (3 Bft) 97,87 %
09.10.2019 02:38 12,1 C 11,1 C 10,6 C 94 % 1008,8 hPa 0,0 l/m 0 min 0 min 0 W/m 12,9 km/h (3 Bft) 97,87 %
09.10.2019 02:40 12,1 C 11,1 C 10,6 C 94 % 1008,7 hPa 0,0 l/m 0 min 0 min 0 W/m 6,4 km/h (2 Bft) 95,74 %
09.10.2019 02:42 12,1 C 11,1 C 10,6 C 94 % 1008,7 hPa 0,0 l/m 0 min 0 min 0 W/m 12,9 km/h (3 Bft) 97,87 %
09.10.2019 02:44 12,1 C 11,1 C 10,6 C 94 % 1008,8 hPa 0,0 l/m 0 min 0 min 0 W/m 12,9 km/h (3 Bft) 97,87 %
09.10.2019 02:46 12,1 C 11,1 C 10,6 C 94 % 1008,8 hPa 0,0 l/m 0 min 0 min 0 W/m 22,5 km/h (4 Bft) 97,83 %
09.10.2019 02:48 12,1 C 11,1 C 10,6 C 94 % 1008,7 hPa 0,0 l/m 0 min 0 min 0 W/m 16,1 km/h (3 Bft) 95,74 %
09.10.2019 02:50 12,1 C 11,1 C 10,6 C 94 % 1008,7 hPa 0,0 l/m 0 min 0 min 0 W/m 19,3 km/h (3 Bft) 97,87 %
09.10.2019 02:52 12,1 C 11,1 C 10,6 C 94 % 1008,7 hPa 0,0 l/m 0 min 0 min 0 W/m 12,9 km/h (3 Bft) 97,87 %
09.10.2019 02:54 12,1 C 11,1 C 10,6 C 94 % 1008,7 hPa 0,0 l/m 0 min 0 min 0 W/m 12,9 km/h (3 Bft) 97,87 %
09.10.2019 02:56 12,1 C 11,1 C 10,6 C 94 % 1008,8 hPa 0,0 l/m 0 min 0 min 0 W/m 16,1 km/h (3 Bft) 97,87 %
09.10.2019 02:58 12,1 C 11,1 C 10,6 C 94 % 1008,7 hPa 0,0 l/m 0 min 0 min 0 W/m 16,1 km/h (3 Bft) 97,83 %
09.10.2019 03:00 12,1 C 11,1 C 10,6 C 94 % 1008,8 hPa 0,0 l/m 0 min 0 min 0 W/m 16,1 km/h (3 Bft) 95,74 %
09.10.2019 03:02 12,1 C 11,1 C 10,6 C 94 % 1008,8 hPa 0,0 l/m 0 min 0 min 0 W/m 16,1 km/h (3 Bft) 97,87 %
09.10.2019 03:04 12,1 C 11,1 C 10,6 C 94 % 1008,7 hPa 0,0 l/m 0 min 0 min 0 W/m 16,1 km/h (3 Bft) 97,87 %
09.10.2019 03:06 12,1 C 11,1 C 10,6 C 94 % 1008,7 hPa 0,0 l/m 0 min 0 min 0 W/m 9,7 km/h (2 Bft) 93,62 %
09.10.2019 03:08 12,1 C 11,1 C 10,6 C 94 % 1008,7 hPa 0,0 l/m 0 min 0 min 0 W/m 16,1 km/h (3 Bft) 95,92 %
09.10.2019 03:10 12,1 C 11,1 C 10,6 C 94 % 1008,8 hPa 0,0 l/m 0 min 0 min 0 W/m 19,3 km/h (3 Bft) 97,87 %
09.10.2019 03:12 12,1 C 11,1 C 10,6 C 94 % 1008,8 hPa 0,0 l/m 0 min 0 min 0 W/m 9,7 km/h (2 Bft) 97,83 %
09.10.2019 03:14 12,1 C 11,1 C 10,6 C 94 % 1008,8 hPa 0,0 l/m 0 min 0 min 0 W/m 6,4 km/h (2 Bft) 97,87 %
09.10.2019 03:16 12,1 C 11,1 C 10,6 C 94 % 1008,8 hPa 0,0 l/m 0 min 0 min 0 W/m 9,7 km/h (2 Bft) 100,00 %
09.10.2019 03:18 12,1 C 11,1 C 10,6 C 94 % 1008,8 hPa 0,0 l/m 0 min 0 min 0 W/m 6,4 km/h (2 Bft) 100,00 %
09.10.2019 03:20 12,0 C 11,1 C 10,6 C 94 % 1008,7 hPa 0,0 l/m 0 min 0 min 0 W/m 12,9 km/h (3 Bft) 100,00 %
09.10.2019 03:22 12,0 C 11,1 C 10,6 C 94 % 1008,8 hPa 0,0 l/m 0 min 0 min 0 W/m 12,9 km/h (3 Bft) 97,87 %
09.10.2019 03:24 12,0 C 11,1 C 10,6 C 94 % 1008,8 hPa 0,0 l/m 0 min 0 min 0 W/m 12,9 km/h (3 Bft) 97,83 %
09.10.2019 03:26 11,9 C 11,1 C 10,6 C 94 % 1008,8 hPa 0,0 l/m 0 min 0 min 0 W/m 16,1 km/h (3 Bft) 100,00 %
09.10.2019 03:28 11,9 C 11,1 C 10,6 C 94 % 1008,7 hPa 0,0 l/m 0 min 0 min 0 W/m 12,9 km/h (3 Bft) 97,87 %
09.10.2019 03:30 11,9 C 11,1 C 10,6 C 94 % 1008,8 hPa 0,0 l/m 0 min 0 min 0 W/m 16,1 km/h (3 Bft) 97,87 %
09.10.2019 03:32 11,9 C 11,1 C 10,6 C 94 % 1008,8 hPa 0,0 l/m 0 min 0 min 0 W/m 19,3 km/h (3 Bft) 95,74 %
09.10.2019 03:34 11,9 C 11,1 C 10,6 C 94 % 1008,8 hPa 0,0 l/m 0 min 0 min 0 W/m 12,9 km/h (3 Bft) 97,87 %
09.10.2019 03:36 11,9 C 11,1 C 10,6 C 94 % 1008,8 hPa 0,0 l/m 0 min 0 min 0 W/m 22,5 km/h (4 Bft) 95,65 %
09.10.2019 03:38 11,9 C 11,1 C 10,6 C 94 % 1008,8 hPa 0,0 l/m 0 min 0 min 0 W/m 19,3 km/h (3 Bft) 97,87 %
09.10.2019 03:40 11,9 C 11,1 C 10,6 C 94 % 1008,9 hPa 0,0 l/m 0 min 0 min 0 W/m 22,5 km/h (4 Bft) 95,74 %
09.10.2019 03:42 11,9 C 11,1 C 10,6 C 94 % 1008,9 hPa 0,0 l/m 0 min 0 min 0 W/m 19,3 km/h (3 Bft) 95,74 %
09.10.2019 03:44 11,9 C 11,1 C 10,6 C 94 % 1008,8 hPa 0,0 l/m 0 min 0 min 0 W/m 12,9 km/h (3 Bft) 95,74 %
09.10.2019 03:46 11,9 C 11,1 C 10,6 C 94 % 1008,8 hPa 0,0 l/m 0 min 0 min 0 W/m 6,4 km/h (2 Bft) 95,65 %
09.10.2019 03:48 11,9 C 11,1 C 10,6 C 94 % 1008,7 hPa 0,0 l/m 0 min 0 min 0 W/m 19,3 km/h (3 Bft) 95,74 %
09.10.2019 03:50 11,9 C 11,1 C 10,6 C 94 % 1008,7 hPa 0,0 l/m 0 min 0 min 0 W/m 19,3 km/h (3 Bft) 93,62 %
09.10.2019 03:52 11,8 C 11,1 C 10,6 C 94 % 1008,8 hPa 0,0 l/m 0 min 0 min 0 W/m 16,1 km/h (3 Bft) 95,74 %
09.10.2019 03:54 11,8 C 11,1 C 10,6 C 95 % 1008,8 hPa 0,0 l/m 0 min 0 min 0 W/m 16,1 km/h (3 Bft) 95,74 %
09.10.2019 03:56 11,8 C 11,1 C 10,6 C 95 % 1008,8 hPa 0,0 l/m 0 min 0 min 0 W/m 16,1 km/h (3 Bft) 93,62 %
09.10.2019 03:58 11,8 C 11,1 C 10,6 C 95 % 1008,9 hPa 0,0 l/m 0 min 0 min 0 W/m 16,1 km/h (3 Bft) 95,65 %
09.10.2019 04:00 11,8 C 11,1 C 10,6 C 95 % 1008,9 hPa 0,0 l/m 0 min 0 min 0 W/m 19,3 km/h (3 Bft) 95,74 %
09.10.2019 04:02 11,8 C 11,1 C 10,6 C 95 % 1008,9 hPa 0,0 l/m 0 min 0 min 0 W/m 19,3 km/h (3 Bft) 97,30 %
09.10.2019 04:04 11,8 C 11,1 C 10,6 C 95 % 1008,9 hPa 0,0 l/m 0 min 0 min 0 W/m 16,1 km/h (3 Bft) 95,74 %
09.10.2019 04:06 11,8 C 11,1 C 10,6 C 95 % 1008,9 hPa 0,0 l/m 0 min 0 min 0 W/m 19,3 km/h (3 Bft) 93,62 %
09.10.2019 04:08 11,8 C 11,1 C 10,6 C 95 % 1008,8 hPa 0,0 l/m 0 min 0 min 0 W/m 12,9 km/h (3 Bft) 93,62 %
09.10.2019 04:10 11,8 C 11,1 C 10,6 C 95 % 1008,9 hPa 0,0 l/m 0 min 0 min 0 W/m 12,9 km/h (3 Bft) 95,65 %
09.10.2019 04:12 11,8 C 11,1 C 10,6 C 95 % 1008,8 hPa 0,0 l/m 0 min 0 min 0 W/m 12,9 km/h (3 Bft) 95,74 %
09.10.2019 04:14 11,8 C 11,1 C 10,6 C 95 % 1008,9 hPa 0,0 l/m 0 min 0 min 0 W/m 6,4 km/h (2 Bft) 93,62 %
09.10.2019 04:16 11,8 C 11,1 C 10,6 C 95 % 1008,9 hPa 0,0 l/m 0 min 0 min 0 W/m 12,9 km/h (3 Bft) 95,74 %
09.10.2019 04:18 11,8 C 11,1 C 10,6 C 95 % 1008,9 hPa 0,0 l/m 0 min 0 min 0 W/m 19,3 km/h (3 Bft) 97,87 %
09.10.2019 04:20 11,8 C 11,1 C 10,6 C 95 % 1008,9 hPa 0,0 l/m 0 min 0 min 0 W/m 16,1 km/h (3 Bft) 97,87 %
09.10.2019 04:22 11,8 C 11,1 C 10,6 C 95 % 1008,9 hPa 0,0 l/m 0 min 0 min 0 W/m 12,9 km/h (3 Bft) 97,83 %
09.10.2019 04:24 11,8 C 11,1 C 10,6 C 95 % 1008,9 hPa 0,0 l/m 0 min 0 min 0 W/m 19,3 km/h (3 Bft) 97,87 %
09.10.2019 04:26 11,8 C 11,1 C 10,6 C 95 % 1008,8 hPa 0,0 l/m 0 min 0 min 0 W/m 19,3 km/h (3 Bft) 97,87 %
09.10.2019 04:28 11,8 C 11,1 C 10,6 C 95 % 1008,9 hPa 0,0 l/m 0 min 0 min 0 W/m 12,9 km/h (3 Bft) 97,87 %
09.10.2019 04:30 11,8 C 11,1 C 10,6 C 95 % 1008,9 hPa 0,0 l/m 0 min 0 min 0 W/m 12,9 km/h (3 Bft) 97,87 %
09.10.2019 04:32 11,8 C 11,1 C 10,6 C 95 % 1008,9 hPa 0,0 l/m 0 min 0 min 0 W/m 22,5 km/h (4 Bft) 97,83 %
09.10.2019 04:34 11,8 C 11,1 C 10,6 C 95 % 1008,8 hPa 0,0 l/m 0 min 0 min 0 W/m 19,3 km/h (3 Bft) 97,87 %
09.10.2019 04:36 11,8 C 11,1 C 10,6 C 95 % 1008,8 hPa 0,0 l/m 0 min 0 min 0 W/m 12,9 km/h (3 Bft) 97,87 %
09.10.2019 04:38 11,8 C 11,1 C 10,6 C 95 % 1008,9 hPa 0,0 l/m 0 min 0 min 0 W/m 12,9 km/h (3 Bft) 97,87 %
09.10.2019 04:40 11,8 C 11,1 C 10,6 C 95 % 1008,8 hPa 0,0 l/m 0 min 0 min 0 W/m 19,3 km/h (3 Bft) 97,87 %
09.10.2019 04:42 11,8 C 11,1 C 10,6 C 95 % 1008,8 hPa 0,0 l/m 0 min 0 min 0 W/m 19,3 km/h (3 Bft) 100,00 %
09.10.2019 04:44 11,8 C 11,1 C 10,6 C 95 % 1008,8 hPa 0,0 l/m 0 min 0 min 0 W/m 16,1 km/h (3 Bft) 100,00 %
09.10.2019 04:46 11,8 C 11,1 C 10,6 C 95 % 1008,8 hPa 0,0 l/m 0 min 0 min 0 W/m 16,1 km/h (3 Bft) 97,83 %
09.10.2019 04:48 11,8 C 11,1 C 10,6 C 95 % 1008,8 hPa 0,0 l/m 0 min 0 min 0 W/m 19,3 km/h (3 Bft) 100,00 %
09.10.2019 04:50 11,8 C 11,1 C 10,6 C 95 % 1008,8 hPa 0,0 l/m 0 min 0 min 0 W/m 19,3 km/h (3 Bft) 100,00 %
09.10.2019 04:52 11,8 C 11,1 C 10,6 C 95 % 1008,8 hPa 0,0 l/m 0 min 0 min 0 W/m 16,1 km/h (3 Bft) 97,87 %
09.10.2019 04:54 11,8 C 11,1 C 10,6 C 95 % 1008,8 hPa 0,0 l/m 0 min 0 min 0 W/m 16,1 km/h (3 Bft) 100,00 %
09.10.2019 04:56 11,8 C 11,1 C 10,6 C 95 % 1008,9 hPa 0,0 l/m 0 min 0 min 0 W/m 22,5 km/h (4 Bft) 97,83 %
09.10.2019 04:58 11,8 C 11,1 C 10,6 C 95 % 1008,9 hPa 0,0 l/m 0 min 0 min 0 W/m 16,1 km/h (3 Bft) 95,74 %
09.10.2019 05:00 11,8 C 11,1 C 10,6 C 95 % 1008,9 hPa 0,0 l/m 0 min 0 min 0 W/m 16,1 km/h (3 Bft) 97,87 %
09.10.2019 05:02 11,8 C 11,1 C 10,6 C 95 % 1008,9 hPa 0,0 l/m 0 min 0 min 0 W/m 19,3 km/h (3 Bft) 100,00 %
09.10.2019 05:04 11,8 C 11,1 C 10,6 C 95 % 1009,0 hPa 0,0 l/m 0 min 0 min 0 W/m 22,5 km/h (4 Bft) 100,00 %
09.10.2019 05:06 11,8 C 11,1 C 10,6 C 95 % 1009,0 hPa 0,0 l/m 0 min 0 min 0 W/m 16,1 km/h (3 Bft) 97,87 %
09.10.2019 05:08 11,7 C 11,1 C 10,6 C 95 % 1009,1 hPa 0,0 l/m 0 min 0 min 0 W/m 19,3 km/h (3 Bft) 97,83 %
09.10.2019 05:10 11,7 C 11,1 C 10,6 C 95 % 1009,1 hPa 0,0 l/m 0 min 0 min 0 W/m 16,1 km/h (3 Bft) 97,87 %
09.10.2019 05:12 11,7 C 10,6 C 10,6 C 95 % 1009,1 hPa 0,0 l/m 0 min 0 min 0 W/m 12,9 km/h (3 Bft) 97,87 %
09.10.2019 05:14 11,7 C 10,6 C 10,6 C 95 % 1009,0 hPa 0,0 l/m 0 min 0 min 0 W/m 22,5 km/h (4 Bft) 97,87 %
09.10.2019 05:16 11,7 C 10,6 C 10,6 C 95 % 1009,1 hPa 0,0 l/m 0 min 0 min 0 W/m 19,3 km/h (3 Bft) 97,87 %
09.10.2019 05:18 11,7 C 10,6 C 10,6 C 95 % 1009,1 hPa 0,0 l/m 0 min 0 min 0 W/m 19,3 km/h (3 Bft) 97,87 %
09.10.2019 05:20 11,7 C 10,6 C 10,6 C 95 % 1009,1 hPa 0,0 l/m 0 min 0 min 0 W/m 12,9 km/h (3 Bft) 97,83 %
09.10.2019 05:22 11,7 C 10,6 C 10,6 C 95 % 1009,1 hPa 0,0 l/m 0 min 0 min 0 W/m 19,3 km/h (3 Bft) 95,74 %
09.10.2019 05:24 11,7 C 10,6 C 10,6 C 95 % 1009,1 hPa 0,0 l/m 0 min 0 min 0 W/m 22,5 km/h (4 Bft) 95,74 %
09.10.2019 05:26 11,7 C 10,6 C 10,6 C 95 % 1009,2 hPa 0,0 l/m 0 min 0 min 0 W/m 19,3 km/h (3 Bft) 95,74 %
09.10.2019 05:28 11,6 C 10,6 C 10,6 C 95 % 1009,2 hPa 0,0 l/m 0 min 0 min 0 W/m 19,3 km/h (3 Bft) 97,87 %
09.10.2019 05:30 11,6 C 10,6 C 10,6 C 95 % 1009,1 hPa 0,0 l/m 0 min 0 min 0 W/m 16,1 km/h (3 Bft) 95,74 %
09.10.2019 05:32 11,6 C 10,6 C 10,0 C 95 % 1009,1 hPa 0,0 l/m 0 min 0 min 0 W/m 12,9 km/h (3 Bft) 95,65 %
09.10.2019 05:34 11,6 C 10,6 C 10,0 C 95 % 1009,2 hPa 0,0 l/m 0 min 0 min 0 W/m 19,3 km/h (3 Bft) 97,87 %
09.10.2019 05:36 11,6 C 10,6 C 10,0 C 95 % 1009,0 hPa 0,0 l/m 0 min 0 min 0 W/m 19,3 km/h (3 Bft) 97,87 %
09.10.2019 05:38 11,6 C 10,6 C 10,0 C 95 % 1009,0 hPa 0,0 l/m 0 min 0 min 0 W/m 19,3 km/h (3 Bft) 97,87 %
09.10.2019 05:40 11,5 C 10,6 C 10,0 C 95 % 1009,0 hPa 0,0 l/m 0 min 0 min 0 W/m 16,1 km/h (3 Bft) 97,87 %
09.10.2019 05:42 11,5 C 10,6 C 10,0 C 95 % 1009,1 hPa 0,0 l/m 0 min 0 min 0 W/m 19,3 km/h (3 Bft) 97,87 %
09.10.2019 05:44 11,5 C 10,6 C 10,0 C 95 % 1009,1 hPa 0,0 l/m 0 min 0 min 0 W/m 19,3 km/h (3 Bft) 97,83 %
09.10.2019 05:46 11,5 C 10,6 C 10,0 C 95 % 1009,0 hPa 0,0 l/m 0 min 0 min 0 W/m 19,3 km/h (3 Bft) 100,00 %
09.10.2019 05:48 11,4 C 10,6 C 10,0 C 95 % 1009,1 hPa 0,0 l/m 0 min 0 min 0 W/m 19,3 km/h (3 Bft) 97,87 %
09.10.2019 05:50 11,4 C 10,6 C 10,0 C 95 % 1009,0 hPa 0,0 l/m 0 min 0 min 0 W/m 16,1 km/h (3 Bft) 97,87 %
09.10.2019 05:52 11,4 C 10,6 C 10,0 C 95 % 1009,1 hPa 0,0 l/m 0 min 0 min 0 W/m 12,9 km/h (3 Bft) 97,87 %
09.10.2019 05:54 11,4 C 10,6 C 10,0 C 95 % 1009,0 hPa 0,0 l/m 0 min 0 min 0 W/m 19,3 km/h (3 Bft) 97,83 %
09.10.2019 05:56 11,4 C 10,6 C 10,0 C 95 % 1009,1 hPa 0,0 l/m 0 min 0 min 0 W/m 16,1 km/h (3 Bft) 97,87 %
09.10.2019 05:58 11,4 C 10,6 C 10,0 C 95 % 1009,1 hPa 0,0 l/m 0 min 0 min 0 W/m 16,1 km/h (3 Bft) 100,00 %
09.10.2019 06:00 11,4 C 10,6 C 10,0 C 95 % 1009,0 hPa 0,0 l/m 0 min 0 min 0 W/m 16,1 km/h (3 Bft) 97,87 %
09.10.2019 06:02 11,3 C 10,6 C 10,0 C 95 % 1009,0 hPa 0,0 l/m 0 min 0 min 0 W/m 22,5 km/h (4 Bft) 100,00 %
09.10.2019 06:04 11,3 C 10,6 C 10,0 C 95 % 1009,0 hPa 0,0 l/m 0 min 0 min 0 W/m 12,9 km/h (3 Bft) 95,74 %
09.10.2019 06:08 11,3 C 10,6 C 10,0 C 95 % 1008,9 hPa 0,0 l/m 0 min 0 min 0 W/m 22,5 km/h (4 Bft) 97,85 %
09.10.2019 06:10 11,3 C 10,6 C 10,0 C 95 % 1009,0 hPa 0,0 l/m 0 min 0 min 0 W/m 19,3 km/h (3 Bft) 97,87 %
09.10.2019 06:12 11,3 C 10,6 C 10,0 C 95 % 1008,9 hPa 0,0 l/m 0 min 0 min 0 W/m 16,1 km/h (3 Bft) 97,87 %
09.10.2019 06:14 11,2 C 10,6 C 10,0 C 95 % 1009,0 hPa 0,0 l/m 0 min 0 min 0 W/m 16,1 km/h (3 Bft) 97,87 %
09.10.2019 06:16 11,2 C 10,6 C 10,0 C 95 % 1009,0 hPa 0,0 l/m 0 min 0 min 0 W/m 16,1 km/h (3 Bft) 97,87 %
09.10.2019 06:18 11,2 C 10,0 C 10,0 C 95 % 1009,0 hPa 0,0 l/m 0 min 0 min 0 W/m 19,3 km/h (3 Bft) 97,83 %
09.10.2019 06:20 11,2 C 10,0 C 10,0 C 95 % 1009,0 hPa 0,0 l/m 0 min 0 min 0 W/m 22,5 km/h (4 Bft) 97,87 %
09.10.2019 06:22 11,2 C 10,0 C 10,0 C 95 % 1009,0 hPa 0,0 l/m 0 min 0 min 0 W/m 22,5 km/h (4 Bft) 95,74 %
09.10.2019 06:24 11,2 C 10,0 C 10,0 C 95 % 1009,0 hPa 0,0 l/m 0 min 0 min 0 W/m 19,3 km/h (3 Bft) 97,87 %
09.10.2019 06:26 11,2 C 10,0 C 10,0 C 95 % 1008,9 hPa 0,0 l/m 0 min 0 min 0 W/m 12,9 km/h (3 Bft) 97,87 %
09.10.2019 06:28 11,2 C 10,0 C 10,0 C 95 % 1008,9 hPa 0,0 l/m 0 min 0 min 0 W/m 16,1 km/h (3 Bft) 97,87 %
09.10.2019 06:30 11,1 C 10,0 C 10,0 C 95 % 1008,9 hPa 0,0 l/m 0 min 0 min 0 W/m 16,1 km/h (3 Bft) 97,83 %
09.10.2019 06:32 11,1 C 10,0 C 10,0 C 95 % 1008,9 hPa 0,0 l/m 0 min 0 min 0 W/m 25,7 km/h (4 Bft) 97,87 %
09.10.2019 06:34 11,1 C 10,0 C 10,0 C 95 % 1008,9 hPa 0,0 l/m 0 min 0 min 0 W/m 19,3 km/h (3 Bft) 97,87 %
09.10.2019 06:36 11,1 C 10,0 C 10,0 C 95 % 1008,9 hPa 0,0 l/m 0 min 0 min 0 W/m 19,3 km/h (3 Bft) 97,87 %
09.10.2019 06:38 11,1 C 10,0 C 10,0 C 95 % 1009,0 hPa 0,0 l/m 0 min 0 min 0 W/m 19,3 km/h (3 Bft) 97,87 %
09.10.2019 06:40 11,1 C 10,0 C 10,0 C 95 % 1008,9 hPa 0,0 l/m 0 min 0 min 0 W/m 6,4 km/h (2 Bft) 95,74 %
09.10.2019 06:42 11,1 C 10,0 C 10,0 C 95 % 1009,0 hPa 0,0 l/m 0 min 0 min 0 W/m 16,1 km/h (3 Bft) 97,83 %
09.10.2019 06:44 11,1 C 10,0 C 10,0 C 95 % 1008,9 hPa 0,0 l/m 0 min 0 min 0 W/m 22,5 km/h (4 Bft) 95,74 %
09.10.2019 06:46 11,1 C 10,0 C 10,0 C 95 % 1009,0 hPa 0,0 l/m 0 min 0 min 0 W/m 19,3 km/h (3 Bft) 97,87 %
09.10.2019 06:48 11,1 C 10,0 C 10,0 C 95 % 1008,9 hPa 0,0 l/m 0 min 0 min 0 W/m 16,1 km/h (3 Bft) 97,87 %
09.10.2019 06:50 11,1 C 10,0 C 10,0 C 95 % 1009,0 hPa 0,0 l/m 0 min 0 min 0 W/m 16,1 km/h (3 Bft) 97,87 %
09.10.2019 06:52 11,1 C 10,0 C 10,0 C 95 % 1009,0 hPa 0,0 l/m 0 min 0 min 0 W/m 16,1 km/h (3 Bft) 97,87 %
09.10.2019 06:54 11,1 C 10,0 C 10,0 C 95 % 1009,0 hPa 0,0 l/m 0 min 0 min 0 W/m 12,9 km/h (3 Bft) 97,83 %
09.10.2019 06:56 11,1 C 10,0 C 10,0 C 95 % 1008,9 hPa 0,0 l/m 0 min 0 min 0 W/m 12,9 km/h (3 Bft) 100,00 %
09.10.2019 06:58 11,1 C 10,0 C 9,4 C 95 % 1009,0 hPa 0,0 l/m 0 min 0 min 0 W/m 12,9 km/h (3 Bft) 100,00 %
09.10.2019 07:00 11,0 C 10,0 C 9,4 C 95 % 1009,0 hPa 0,0 l/m 0 min 0 min 0 W/m 16,1 km/h (3 Bft) 100,00 %
09.10.2019 07:02 11,0 C 10,0 C 9,4 C 95 % 1009,0 hPa 0,0 l/m 0 min 0 min 0 W/m 16,1 km/h (3 Bft) 95,74 %
09.10.2019 07:04 11,0 C 10,0 C 9,4 C 95 % 1009,0 hPa 0,0 l/m 0 min 0 min 0 W/m 12,9 km/h (3 Bft) 100,00 %
09.10.2019 07:06 11,0 C 10,0 C 9,4 C 95 % 1009,0 hPa 0,0 l/m 0 min 0 min 0 W/m 16,1 km/h (3 Bft) 97,87 %
09.10.2019 07:08 10,9 C 10,0 C 9,4 C 95 % 1009,0 hPa 0,0 l/m 0 min 0 min 0 W/m 25,7 km/h (4 Bft) 97,87 %
09.10.2019 07:10 10,9 C 10,0 C 9,4 C 95 % 1009,1 hPa 0,0 l/m 0 min 0 min 0 W/m 16,1 km/h (3 Bft) 97,87 %
09.10.2019 07:12 10,9 C 10,0 C 9,4 C 95 % 1009,0 hPa 0,0 l/m 0 min 0 min 0 W/m 16,1 km/h (3 Bft) 93,62 %
09.10.2019 07:14 10,9 C 10,0 C 9,4 C 96 % 1009,1 hPa 0,0 l/m 0 min 0 min 0 W/m 16,1 km/h (3 Bft) 97,87 %
09.10.2019 07:16 10,9 C 10,0 C 9,4 C 96 % 1009,0 hPa 0,0 l/m 0 min 0 min 0 W/m 6,4 km/h (2 Bft) 97,83 %
09.10.2019 07:18 10,9 C 10,0 C 9,4 C 96 % 1009,0 hPa 0,0 l/m 0 min 0 min 0 W/m 16,1 km/h (3 Bft) 97,87 %
09.10.2019 07:20 10,9 C 10,0 C 9,4 C 96 % 1009,0 hPa 0,0 l/m 0 min 0 min 0 W/m 12,9 km/h (3 Bft) 97,87 %
09.10.2019 07:22 10,9 C 10,0 C 9,4 C 96 % 1008,9 hPa 0,0 l/m 0 min 0 min 0 W/m 12,9 km/h (3 Bft) 97,87 %
09.10.2019 07:24 10,9 C 10,0 C 9,4 C 96 % 1009,0 hPa 0,0 l/m 0 min 0 min 0 W/m 6,4 km/h (2 Bft) 93,62 %
09.10.2019 07:26 10,8 C 10,0 C 9,4 C 96 % 1009,0 hPa 0,0 l/m 0 min 0 min 0 W/m 16,1 km/h (3 Bft) 97,87 %
09.10.2019 07:28 10,8 C 10,0 C 9,4 C 96 % 1008,9 hPa 0,0 l/m 0 min 0 min 0 W/m 16,1 km/h (3 Bft) 95,65 %
09.10.2019 07:30 10,8 C 10,0 C 9,4 C 96 % 1008,9 hPa 0,0 l/m 0 min 0 min 0 W/m 12,9 km/h (3 Bft) 97,87 %
09.10.2019 07:32 10,8 C 10,0 C 9,4 C 96 % 1008,9 hPa 0,0 l/m 0 min 0 min 0 W/m 19,3 km/h (3 Bft) 97,87 %
09.10.2019 07:34 10,8 C 10,0 C 9,4 C 96 % 1008,9 hPa 0,0 l/m 0 min 0 min 0 W/m 12,9 km/h (3 Bft) 95,74 %
09.10.2019 07:36 10,8 C 10,0 C 9,4 C 96 % 1008,8 hPa 0,0 l/m 0 min 0 min 0 W/m 16,1 km/h (3 Bft) 97,87 %
09.10.2019 07:38 10,8 C 10,0 C 9,4 C 96 % 1008,8 hPa 0,0 l/m 0 min 0 min 0 W/m 19,3 km/h (3 Bft) 95,74 %
09.10.2019 07:40 10,8 C 10,0 C 9,4 C 96 % 1008,8 hPa 0,0 l/m 0 min 0 min 0 W/m 16,1 km/h (3 Bft) 95,65 %
09.10.2019 07:42 10,8 C 10,0 C 9,4 C 96 % 1008,8 hPa 0,0 l/m 0 min 0 min 0 W/m 12,9 km/h (3 Bft) 95,74 %
09.10.2019 07:44 10,8 C 10,0 C 9,4 C 96 % 1008,8 hPa 0,0 l/m 0 min 0 min 0 W/m 16,1 km/h (3 Bft) 95,74 %
09.10.2019 07:46 10,8 C 10,0 C 10,0 C 96 % 1008,8 hPa 0,0 l/m 0 min 0 min 0 W/m 12,9 km/h (3 Bft) 89,36 %
09.10.2019 07:48 10,8 C 10,0 C 9,4 C 96 % 1008,8 hPa 0,0 l/m 0 min 0 min 0 W/m 12,9 km/h (3 Bft) 97,87 %
09.10.2019 07:50 10,8 C 10,0 C 10,0 C 96 % 1008,8 hPa 0,0 l/m 0 min 0 min 0 W/m 12,9 km/h (3 Bft) 97,83 %
09.10.2019 07:52 10,8 C 10,0 C 10,0 C 96 % 1008,8 hPa 0,0 l/m 0 min 0 min 4 W/m 16,1 km/h (3 Bft) 97,87 %
09.10.2019 07:54 10,8 C 10,6 C 10,0 C 96 % 1008,8 hPa 0,0 l/m 0 min 0 min 5 W/m 19,3 km/h (3 Bft) 95,74 %
09.10.2019 07:56 10,8 C 10,6 C 10,0 C 96 % 1008,7 hPa 0,0 l/m 0 min 0 min 6 W/m 19,3 km/h (3 Bft) 95,74 %
09.10.2019 07:58 10,8 C 10,6 C 10,0 C 96 % 1008,7 hPa 0,0 l/m 0 min 0 min 8 W/m 16,1 km/h (3 Bft) 95,74 %
09.10.2019 08:00 10,8 C 10,6 C 10,0 C 96 % 1008,7 hPa 0,0 l/m 0 min 0 min 9 W/m 6,4 km/h (2 Bft) 95,74 %
09.10.2019 08:02 10,8 C 10,6 C 10,0 C 96 % 1008,6 hPa 0,0 l/m 0 min 0 min 12 W/m 12,9 km/h (3 Bft) 97,83 %
09.10.2019 08:04 10,9 C 10,6 C 10,0 C 96 % 1008,6 hPa 0,0 l/m 0 min 0 min 12 W/m 12,9 km/h (3 Bft) 97,87 %
09.10.2019 08:06 10,9 C 10,6 C 10,0 C 96 % 1008,7 hPa 0,0 l/m 0 min 0 min 14 W/m 19,3 km/h (3 Bft) 97,87 %
09.10.2019 08:08 10,9 C 10,6 C 10,0 C 96 % 1008,6 hPa 0,0 l/m 0 min 0 min 17 W/m 25,7 km/h (4 Bft) 97,87 %
09.10.2019 08:10 10,9 C 10,6 C 10,0 C 96 % 1008,7 hPa 0,0 l/m 0 min 0 min 19 W/m 19,3 km/h (3 Bft) 95,74 %
09.10.2019 08:12 10,9 C 10,6 C 10,6 C 96 % 1008,7 hPa 0,0 l/m 0 min 0 min 22 W/m 16,1 km/h (3 Bft) 95,74 %
09.10.2019 08:14 11,0 C 10,6 C 10,6 C 96 % 1008,7 hPa 0,0 l/m 0 min 0 min 24 W/m 19,3 km/h (3 Bft) 97,83 %
09.10.2019 08:16 11,0 C 11,1 C 10,6 C 96 % 1008,6 hPa 0,0 l/m 0 min 0 min 25 W/m 16,1 km/h (3 Bft) 93,62 %
09.10.2019 08:18 11,0 C 11,1 C 10,6 C 96 % 1008,6 hPa 0,0 l/m 0 min 0 min 24 W/m 16,1 km/h (3 Bft) 95,74 %
09.10.2019 08:20 11,1 C 11,1 C 10,6 C 96 % 1008,6 hPa 0,0 l/m 0 min 0 min 25 W/m 19,3 km/h (3 Bft) 97,87 %
09.10.2019 08:22 11,1 C 11,1 C 10,6 C 96 % 1008,6 hPa 0,0 l/m 0 min 0 min 28 W/m 16,1 km/h (3 Bft) 95,74 %
09.10.2019 08:24 11,1 C 11,1 C 10,6 C 96 % 1008,6 hPa 0,0 l/m 0 min 0 min 32 W/m 22,5 km/h (4 Bft) 97,87 %
09.10.2019 08:26 11,1 C 11,1 C 10,6 C 96 % 1008,6 hPa 0,0 l/m 0 min 0 min 33 W/m 12,9 km/h (3 Bft) 97,83 %
09.10.2019 08:28 11,1 C 11,1 C 10,6 C 96 % 1008,6 hPa 0,0 l/m 0 min 0 min 35 W/m 16,1 km/h (3 Bft) 97,87 %
09.10.2019 08:30 11,1 C 11,1 C 10,6 C 96 % 1008,6 hPa 0,0 l/m 0 min 0 min 36 W/m 19,3 km/h (3 Bft) 97,87 %
09.10.2019 08:32 11,1 C 11,1 C 10,6 C 96 % 1008,7 hPa 0,0 l/m 0 min 0 min 38 W/m 12,9 km/h (3 Bft) 97,87 %
09.10.2019 08:34 11,2 C 11,1 C 10,6 C 96 % 1008,6 hPa 0,0 l/m 0 min 0 min 40 W/m 16,1 km/h (3 Bft) 97,87 %
09.10.2019 08:36 11,2 C 11,1 C 10,6 C 96 % 1008,5 hPa 0,0 l/m 0 min 0 min 43 W/m 12,9 km/h (3 Bft) 97,87 %
09.10.2019 08:38 11,2 C 11,1 C 10,6 C 96 % 1008,6 hPa 0,0 l/m 0 min 0 min 44 W/m 22,5 km/h (4 Bft) 97,83 %
09.10.2019 08:40 11,2 C 11,1 C 10,6 C 96 % 1008,5 hPa 0,0 l/m 0 min 0 min 43 W/m 16,1 km/h (3 Bft) 95,74 %
09.10.2019 08:42 11,2 C 11,1 C 10,6 C 96 % 1008,5 hPa 0,0 l/m 0 min 0 min 42 W/m 19,3 km/h (3 Bft) 93,62 %
09.10.2019 08:44 11,3 C 11,1 C 10,6 C 96 % 1008,5 hPa 0,0 l/m 0 min 0 min 44 W/m 19,3 km/h (3 Bft) 97,87 %
09.10.2019 08:46 11,3 C 11,1 C 10,6 C 96 % 1008,4 hPa 0,0 l/m 0 min 0 min 50 W/m 16,1 km/h (3 Bft) 97,87 %
09.10.2019 08:48 11,3 C 11,1 C 10,6 C 96 % 1008,5 hPa 0,0 l/m 0 min 0 min 57 W/m 16,1 km/h (3 Bft) 100,00 %
09.10.2019 08:50 11,3 C 11,7 C 10,6 C 96 % 1008,5 hPa 0,0 l/m 0 min 0 min 56 W/m 19,3 km/h (3 Bft) 95,65 %
09.10.2019 08:52 11,3 C 11,7 C 10,6 C 96 % 1008,4 hPa 0,0 l/m 0 min 0 min 54 W/m 22,5 km/h (4 Bft) 97,87 %
09.10.2019 08:54 11,4 C 11,7 C 10,6 C 96 % 1008,4 hPa 0,0 l/m 0 min 0 min 55 W/m 19,3 km/h (3 Bft) 97,87 %
09.10.2019 08:56 11,4 C 11,7 C 10,6 C 96 % 1008,4 hPa 0,0 l/m 0 min 0 min 60 W/m 22,5 km/h (4 Bft) 95,74 %
09.10.2019 08:58 11,4 C 11,7 C 10,6 C 96 % 1008,3 hPa 0,0 l/m 0 min 0 min 63 W/m 19,3 km/h (3 Bft) 97,87 %
09.10.2019 09:00 11,4 C 11,7 C 11,1 C 95 % 1008,3 hPa 0,0 l/m 0 min 0 min 65 W/m 19,3 km/h (3 Bft) 97,87 %
09.10.2019 09:02 11,4 C 11,7 C 11,1 C 95 % 1008,3 hPa 0,0 l/m 0 min 0 min 66 W/m 22,5 km/h (4 Bft) 95,65 %
09.10.2019 09:04 11,5 C 11,7 C 11,1 C 95 % 1008,3 hPa 0,0 l/m 0 min 0 min 68 W/m 16,1 km/h (3 Bft) 97,87 %
09.10.2019 09:06 11,5 C 11,7 C 11,1 C 95 % 1008,3 hPa 0,0 l/m 0 min 0 min 74 W/m 29,0 km/h (5 Bft) 97,87 %
09.10.2019 09:08 11,6 C 11,7 C 11,1 C 95 % 1008,2 hPa 0,0 l/m 0 min 0 min 77 W/m 22,5 km/h (4 Bft) 97,87 %
09.10.2019 09:10 11,6 C 11,7 C 11,1 C 95 % 1008,3 hPa 0,0 l/m 0 min 0 min 76 W/m 19,3 km/h (3 Bft) 95,74 %
09.10.2019 09:12 11,6 C 11,7 C 11,1 C 95 % 1008,3 hPa 0,0 l/m 0 min 0 min 76 W/m 19,3 km/h (3 Bft) 97,83 %
09.10.2019 09:14 11,6 C 11,7 C 11,1 C 95 % 1008,2 hPa 0,0 l/m 0 min 0 min 81 W/m 16,1 km/h (3 Bft) 97,87 %
09.10.2019 09:16 11,6 C 11,7 C 11,1 C 95 % 1008,2 hPa 0,0 l/m 0 min 0 min 91 W/m 29,0 km/h (5 Bft) 97,87 %
09.10.2019 09:18 11,6 C 11,7 C 11,1 C 95 % 1008,2 hPa 0,0 l/m 0 min 0 min 93 W/m 19,3 km/h (3 Bft) 97,87 %
09.10.2019 09:20 11,7 C 11,7 C 11,1 C 94 % 1008,2 hPa 0,0 l/m 0 min 0 min 91 W/m 22,5 km/h (4 Bft) 95,74 %
09.10.2019 09:22 11,7 C 12,2 C 11,1 C 94 % 1008,2 hPa 0,0 l/m 0 min 0 min 87 W/m 25,7 km/h (4 Bft) 97,87 %
09.10.2019 09:24 11,7 C 11,7 C 11,1 C 94 % 1008,2 hPa 0,0 l/m 0 min 0 min 82 W/m 22,5 km/h (4 Bft) 97,83 %
09.10.2019 09:26 11,8 C 11,7 C 11,1 C 94 % 1008,3 hPa 0,0 l/m 0 min 0 min 77 W/m 22,5 km/h (4 Bft) 93,62 %
09.10.2019 09:28 11,8 C 12,2 C 11,1 C 94 % 1008,3 hPa 0,0 l/m 0 min 0 min 80 W/m 16,1 km/h (3 Bft) 97,87 %
09.10.2019 09:30 11,8 C 11,7 C 11,1 C 94 % 1008,2 hPa 0,0 l/m 0 min 0 min 86 W/m 22,5 km/h (4 Bft) 100,00 %
09.10.2019 09:32 11,8 C 12,2 C 11,1 C 94 % 1008,2 hPa 0,0 l/m 0 min 0 min 88 W/m 22,5 km/h (4 Bft) 97,87 %
09.10.2019 09:34 11,8 C 12,2 C 11,1 C 93 % 1008,3 hPa 0,0 l/m 0 min 0 min 90 W/m 25,7 km/h (4 Bft) 100,00 %
09.10.2019 09:36 11,9 C 12,2 C 11,1 C 93 % 1008,3 hPa 0,0 l/m 0 min 0 min 87 W/m 19,3 km/h (3 Bft) 97,83 %
09.10.2019 09:38 11,9 C 12,2 C 11,1 C 93 % 1008,4 hPa 0,0 l/m 0 min 0 min 97 W/m 22,5 km/h (4 Bft) 100,00 %
09.10.2019 09:40 11,9 C 12,2 C 11,1 C 93 % 1008,3 hPa 0,0 l/m 0 min 0 min 98 W/m 38,6 km/h (5 Bft) 100,00 %
09.10.2019 09:42 12,0 C 12,2 C 11,7 C 93 % 1008,3 hPa 0,0 l/m 0 min 0 min 102 W/m 25,7 km/h (4 Bft) 100,00 %
09.10.2019 09:44 12,0 C 12,2 C 11,7 C 93 % 1008,3 hPa 0,0 l/m 0 min 0 min 105 W/m 25,7 km/h (4 Bft) 97,87 %
09.10.2019 09:46 12,1 C 12,2 C 11,7 C 92 % 1008,3 hPa 0,0 l/m 0 min 0 min 112 W/m 12,9 km/h (3 Bft) 100,00 %
09.10.2019 09:48 12,1 C 12,2 C 11,7 C 92 % 1008,4 hPa 0,0 l/m 0 min 0 min 121 W/m 19,3 km/h (3 Bft) 100,00 %
09.10.2019 09:50 12,1 C 12,2 C 11,7 C 92 % 1008,4 hPa 0,0 l/m 0 min 0 min 121 W/m 19,3 km/h (3 Bft) 97,87 %
09.10.2019 09:52 12,1 C 12,2 C 11,7 C 92 % 1008,3 hPa 0,0 l/m 0 min 0 min 127 W/m 16,1 km/h (3 Bft) 100,00 %
09.10.2019 09:54 12,2 C 12,2 C 11,7 C 92 % 1008,3 hPa 0,0 l/m 0 min 0 min 131 W/m 29,0 km/h (5 Bft) 100,00 %
09.10.2019 09:56 12,2 C 12,8 C 11,7 C 92 % 1008,3 hPa 0,0 l/m 0 min 0 min 119 W/m 22,5 km/h (4 Bft) 100,00 %
09.10.2019 09:58 12,2 C 12,8 C 11,7 C 92 % 1008,3 hPa 0,0 l/m 0 min 0 min 106 W/m 22,5 km/h (4 Bft) 100,00 %
09.10.2019 10:00 12,2 C 12,2 C 11,7 C 92 % 1008,3 hPa 0,0 l/m 0 min 0 min 102 W/m 25,7 km/h (4 Bft) 100,00 %
09.10.2019 10:02 12,3 C 12,2 C 11,7 C 91 % 1008,3 hPa 0,0 l/m 0 min 0 min 114 W/m 25,7 km/h (4 Bft) 100,00 %
09.10.2019 10:04 12,3 C 12,8 C 11,7 C 91 % 1008,3 hPa 0,0 l/m 0 min 0 min 151 W/m 29,0 km/h (5 Bft) 100,00 %
09.10.2019 10:06 12,3 C 12,8 C 12,2 C 91 % 1008,4 hPa 0,0 l/m 2 min 0 min 182 W/m 19,3 km/h (3 Bft) 100,00 %
09.10.2019 10:08 12,4 C 13,3 C 12,2 C 91 % 1008,3 hPa 0,0 l/m 2 min 0 min 182 W/m 35,4 km/h (5 Bft) 100,00 %
09.10.2019 10:10 12,4 C 13,3 C 12,2 C 91 % 1008,3 hPa 0,0 l/m 2 min 0 min 179 W/m 16,1 km/h (3 Bft) 100,00 %
09.10.2019 10:12 12,4 C 13,3 C 12,2 C 91 % 1008,3 hPa 0,0 l/m 2 min 0 min 176 W/m 16,1 km/h (3 Bft) 100,00 %
09.10.2019 10:14 12,5 C 13,3 C 12,2 C 91 % 1008,2 hPa 0,0 l/m 0 min 0 min 148 W/m 16,1 km/h (3 Bft) 100,00 %
09.10.2019 10:16 12,6 C 13,3 C 12,2 C 91 % 1008,2 hPa 0,0 l/m 0 min 0 min 146 W/m 16,1 km/h (3 Bft) 97,87 %
09.10.2019 10:18 12,6 C 12,8 C 12,2 C 91 % 1008,2 hPa 0,0 l/m 0 min 0 min 142 W/m 19,3 km/h (3 Bft) 95,74 %
09.10.2019 10:20 12,6 C 12,8 C 12,2 C 91 % 1008,1 hPa 0,0 l/m 0 min 0 min 143 W/m 12,9 km/h (3 Bft) 97,87 %
09.10.2019 10:22 12,6 C 12,8 C 12,2 C 91 % 1008,1 hPa 0,0 l/m 0 min 0 min 149 W/m 16,1 km/h (3 Bft) 97,83 %
09.10.2019 10:24 12,7 C 13,3 C 12,2 C 91 % 1008,1 hPa 0,0 l/m 0 min 0 min 146 W/m 16,1 km/h (3 Bft) 97,87 %
09.10.2019 10:26 12,7 C 12,8 C 12,2 C 90 % 1008,2 hPa 0,0 l/m 0 min 0 min 142 W/m 19,3 km/h (3 Bft) 95,74 %
09.10.2019 10:28 12,7 C 12,8 C 12,2 C 90 % 1008,1 hPa 0,0 l/m 0 min 0 min 137 W/m 19,3 km/h (3 Bft) 97,87 %
09.10.2019 10:30 12,7 C 12,8 C 12,2 C 90 % 1008,1 hPa 0,0 l/m 0 min 0 min 138 W/m 32,2 km/h (5 Bft) 97,87 %
09.10.2019 10:32 12,8 C 12,8 C 12,2 C 90 % 1008,1 hPa 0,0 l/m 0 min 0 min 138 W/m 16,1 km/h (3 Bft) 97,87 %
09.10.2019 10:34 12,8 C 12,8 C 12,2 C 90 % 1008,2 hPa 0,0 l/m 0 min 0 min 136 W/m 16,1 km/h (3 Bft) 97,83 %
09.10.2019 10:36 12,8 C 12,8 C 12,2 C 90 % 1008,2 hPa 0,0 l/m 0 min 0 min 133 W/m 32,2 km/h (5 Bft) 97,87 %
09.10.2019 10:38 12,8 C 12,8 C 12,2 C 89 % 1008,3 hPa 0,0 l/m 0 min 0 min 131 W/m 19,3 km/h (3 Bft) 97,87 %
09.10.2019 10:40 12,9 C 12,8 C 12,2 C 89 % 1008,1 hPa 0,0 l/m 0 min 0 min 142 W/m 41,8 km/h (6 Bft) 95,74 %
09.10.2019 10:42 12,9 C 13,3 C 12,2 C 89 % 1008,1 hPa 0,0 l/m 0 min 0 min 154 W/m 22,5 km/h (4 Bft) 93,62 %
09.10.2019 10:44 12,9 C 13,3 C 12,2 C 89 % 1008,1 hPa 0,0 l/m 0 min 0 min 164 W/m 29,0 km/h (5 Bft) 97,87 %
09.10.2019 10:46 12,9 C 13,3 C 12,2 C 89 % 1008,1 hPa 0,0 l/m 0 min 0 min 177 W/m 29,0 km/h (5 Bft) 95,65 %
09.10.2019 10:48 13,0 C 13,3 C 12,8 C 89 % 1008,1 hPa 0,0 l/m 0 min 0 min 176 W/m 22,5 km/h (4 Bft) 97,87 %
09.10.2019 10:50 13,0 C 13,3 C 12,8 C 89 % 1007,9 hPa 0,0 l/m 0 min 0 min 169 W/m 29,0 km/h (5 Bft) 95,74 %
09.10.2019 10:52 13,0 C 13,3 C 12,8 C 89 % 1008,0 hPa 0,0 l/m 0 min 0 min 156 W/m 25,7 km/h (4 Bft) 95,74 %
09.10.2019 10:54 13,1 C 13,3 C 12,2 C 88 % 1008,0 hPa 0,0 l/m 0 min 0 min 144 W/m 32,2 km/h (5 Bft) 95,74 %
09.10.2019 10:56 13,1 C 13,3 C 12,2 C 88 % 1007,9 hPa 0,0 l/m 0 min 0 min 150 W/m 25,7 km/h (4 Bft) 95,74 %
09.10.2019 10:58 13,1 C 13,3 C 12,2 C 88 % 1007,9 hPa 0,0 l/m 0 min 0 min 153 W/m 22,5 km/h (4 Bft) 95,65 %
09.10.2019 11:00 13,1 C 13,3 C 12,2 C 88 % 1007,9 hPa 0,0 l/m 0 min 0 min 146 W/m 25,7 km/h (4 Bft) 95,74 %
09.10.2019 11:02 13,2 C 13,3 C 12,2 C 88 % 1008,0 hPa 0,0 l/m 0 min 0 min 138 W/m 29,0 km/h (5 Bft) 95,74 %
09.10.2019 11:04 13,2 C 13,3 C 12,2 C 88 % 1007,9 hPa 0,0 l/m 0 min 0 min 131 W/m 25,7 km/h (4 Bft) 95,74 %
09.10.2019 11:06 13,2 C 12,8 C 12,2 C 88 % 1007,9 hPa 0,0 l/m 0 min 0 min 125 W/m 32,2 km/h (5 Bft) 95,74 %
09.10.2019 11:08 13,2 C 13,3 C 12,2 C 88 % 1007,9 hPa 0,0 l/m 0 min 0 min 123 W/m 25,7 km/h (4 Bft) 97,87 %
09.10.2019 11:10 13,2 C 13,3 C 12,2 C 88 % 1007,9 hPa 0,0 l/m 0 min 0 min 125 W/m 25,7 km/h (4 Bft) 97,83 %
09.10.2019 11:12 13,2 C 13,3 C 12,2 C 88 % 1007,9 hPa 0,0 l/m 0 min 0 min 131 W/m 19,3 km/h (3 Bft) 100,00 %
09.10.2019 11:14 13,2 C 13,3 C 12,2 C 88 % 1007,8 hPa 0,0 l/m 0 min 0 min 137 W/m 16,1 km/h (3 Bft) 95,74 %
09.10.2019 11:16 13,3 C 13,3 C 12,8 C 88 % 1007,7 hPa 0,0 l/m 0 min 0 min 143 W/m 22,5 km/h (4 Bft) 93,62 %
09.10.2019 11:18 13,3 C 13,3 C 12,8 C 88 % 1007,7 hPa 0,0 l/m 0 min 0 min 148 W/m 19,3 km/h (3 Bft) 95,74 %
09.10.2019 11:20 13,3 C 13,3 C 12,8 C 88 % 1007,7 hPa 0,0 l/m 0 min 0 min 150 W/m 32,2 km/h (5 Bft) 91,30 %
09.10.2019 11:22 13,3 C 13,3 C 12,8 C 88 % 1007,7 hPa 0,0 l/m 0 min 0 min 153 W/m 22,5 km/h (4 Bft) 95,74 %
09.10.2019 11:24 13,3 C 13,3 C 12,8 C 87 % 1007,6 hPa 0,0 l/m 0 min 0 min 153 W/m 29,0 km/h (5 Bft) 95,74 %
09.10.2019 11:26 13,3 C 13,3 C 12,8 C 87 % 1007,5 hPa 0,0 l/m 0 min 0 min 153 W/m 22,5 km/h (4 Bft) 95,74 %
09.10.2019 11:28 13,3 C 13,3 C 12,8 C 87 % 1007,5 hPa 0,0 l/m 0 min 0 min 152 W/m 25,7 km/h (4 Bft) 93,62 %
09.10.2019 11:30 13,4 C 13,3 C 12,8 C 87 % 1007,5 hPa 0,0 l/m 0 min 0 min 146 W/m 19,3 km/h (3 Bft) 93,62 %
09.10.2019 11:32 13,4 C 13,3 C 12,8 C 88 % 1007,5 hPa 0,0 l/m 0 min 0 min 132 W/m 16,1 km/h (3 Bft) 95,65 %
09.10.2019 11:34 13,4 C 13,3 C 12,8 C 88 % 1007,5 hPa 0,0 l/m 0 min 0 min 124 W/m 19,3 km/h (3 Bft) 95,74 %
09.10.2019 11:36 13,4 C 13,3 C 12,8 C 87 % 1007,4 hPa 0,0 l/m 0 min 0 min 126 W/m 19,3 km/h (3 Bft) 95,74 %
09.10.2019 11:38 13,5 C 13,9 C 12,8 C 87 % 1007,4 hPa 0,0 l/m 0 min 0 min 130 W/m 16,1 km/h (3 Bft) 93,62 %
09.10.2019 11:40 13,5 C 13,3 C 12,8 C 87 % 1007,3 hPa 0,0 l/m 0 min 0 min 126 W/m 25,7 km/h (4 Bft) 95,74 %
09.10.2019 11:42 13,5 C 13,3 C 12,8 C 87 % 1007,3 hPa 0,0 l/m 0 min 0 min 113 W/m 22,5 km/h (4 Bft) 95,74 %
09.10.2019 11:44 13,6 C 13,3 C 12,8 C 87 % 1007,3 hPa 0,0 l/m 0 min 0 min 97 W/m 29,0 km/h (5 Bft) 95,65 %
09.10.2019 11:46 13,6 C 13,3 C 12,8 C 86 % 1007,3 hPa 0,0 l/m 0 min 0 min 98 W/m 25,7 km/h (4 Bft) 95,74 %
09.10.2019 11:48 13,6 C 13,3 C 12,8 C 86 % 1007,2 hPa 0,0 l/m 0 min 0 min 95 W/m 29,0 km/h (5 Bft) 95,74 %
09.10.2019 11:50 13,6 C 13,3 C 12,8 C 86 % 1007,3 hPa 0,0 l/m 0 min 0 min 92 W/m 32,2 km/h (5 Bft) 95,74 %
09.10.2019 11:52 13,6 C 13,3 C 12,8 C 86 % 1007,2 hPa 0,0 l/m 0 min 0 min 89 W/m 25,7 km/h (4 Bft) 97,87 %
09.10.2019 11:54 13,6 C 13,3 C 12,8 C 86 % 1007,2 hPa 0,0 l/m 0 min 0 min 86 W/m 22,5 km/h (4 Bft) 97,87 %
09.10.2019 11:56 13,6 C 13,3 C 12,8 C 86 % 1007,2 hPa 0,0 l/m 0 min 0 min 86 W/m 29,0 km/h (5 Bft) 97,83 %
09.10.2019 11:58 13,6 C 13,3 C 12,8 C 86 % 1007,1 hPa 0,0 l/m 0 min 0 min 89 W/m 25,7 km/h (4 Bft) 97,87 %
09.10.2019 12:00 13,6 C 13,3 C 12,2 C 86 % 1007,1 hPa 0,0 l/m 0 min 0 min 95 W/m 22,5 km/h (4 Bft) 100,00 %
09.10.2019 12:02 13,6 C 12,8 C 12,2 C 86 % 1007,1 hPa 0,0 l/m 0 min 0 min 100 W/m 22,5 km/h (4 Bft) 100,00 %
09.10.2019 12:04 13,6 C 12,8 C 12,2 C 86 % 1007,1 hPa 0,0 l/m 0 min 0 min 99 W/m 25,7 km/h (4 Bft) 100,00 %
09.10.2019 12:08 13,6 C 12,8 C 12,2 C 86 % 1007,1 hPa 0,0 l/m 0 min 4 min 106 W/m 32,2 km/h (5 Bft) 100,00 %
09.10.2019 12:10 13,6 C 12,2 C 12,2 C 86 % 1007,1 hPa 0,0 l/m 0 min 2 min 115 W/m 38,6 km/h (5 Bft) 100,00 %
09.10.2019 12:12 13,6 C 12,2 C 12,2 C 86 % 1007,1 hPa 0,0 l/m 0 min 2 min 115 W/m 32,2 km/h (5 Bft) 100,00 %
09.10.2019 12:14 13,6 C 12,8 C 12,2 C 86 % 1007,1 hPa 0,0 l/m 0 min 2 min 112 W/m 29,0 km/h (5 Bft) 100,00 %
09.10.2019 12:16 13,6 C 12,8 C 12,2 C 86 % 1007,0 hPa 0,0 l/m 0 min 0 min 107 W/m 19,3 km/h (3 Bft) 100,00 %
09.10.2019 12:18 13,6 C 12,8 C 12,2 C 86 % 1007,0 hPa 0,0 l/m 0 min 0 min 105 W/m 19,3 km/h (3 Bft) 100,00 %
09.10.2019 12:20 13,6 C 12,8 C 12,2 C 86 % 1007,0 hPa 0,0 l/m 0 min 0 min 112 W/m 29,0 km/h (5 Bft) 100,00 %
09.10.2019 12:22 13,6 C 13,3 C 12,2 C 86 % 1007,0 hPa 0,0 l/m 0 min 0 min 123 W/m 25,7 km/h (4 Bft) 97,87 %
09.10.2019 12:24 13,6 C 13,3 C 12,8 C 86 % 1006,9 hPa 0,0 l/m 0 min 0 min 137 W/m 32,2 km/h (5 Bft) 100,00 %
09.10.2019 12:26 13,6 C 13,3 C 12,8 C 86 % 1007,0 hPa 0,0 l/m 0 min 0 min 143 W/m 22,5 km/h (4 Bft) 100,00 %
09.10.2019 12:28 13,6 C 13,3 C 12,8 C 86 % 1006,9 hPa 0,0 l/m 0 min 0 min 140 W/m 38,6 km/h (5 Bft) 100,00 %
09.10.2019 12:30 13,6 C 13,9 C 12,8 C 86 % 1006,9 hPa 0,0 l/m 0 min 0 min 150 W/m 22,5 km/h (4 Bft) 100,00 %
09.10.2019 12:32 13,6 C 13,9 C 12,8 C 86 % 1006,9 hPa 0,0 l/m 0 min 0 min 162 W/m 16,1 km/h (3 Bft) 100,00 %
09.10.2019 12:34 13,6 C 13,9 C 12,8 C 86 % 1006,8 hPa 0,0 l/m 0 min 0 min 181 W/m 25,7 km/h (4 Bft) 100,00 %
09.10.2019 12:36 13,7 C 13,9 C 13,3 C 86 % 1006,8 hPa 0,0 l/m 0 min 0 min 209 W/m 29,0 km/h (5 Bft) 100,00 %
09.10.2019 12:38 13,7 C 14,4 C 13,3 C 86 % 1006,7 hPa 0,0 l/m 0 min 0 min 241 W/m 19,3 km/h (3 Bft) 100,00 %
09.10.2019 12:40 13,7 C 15,0 C 13,3 C 85 % 1006,7 hPa 0,0 l/m 2 min 0 min 268 W/m 19,3 km/h (3 Bft) 100,00 %
09.10.2019 12:42 13,8 C 14,4 C 13,3 C 85 % 1006,7 hPa 0,0 l/m 0 min 0 min 235 W/m 32,2 km/h (5 Bft) 93,48 %
09.10.2019 12:44 13,8 C 14,4 C 13,3 C 85 % 1006,7 hPa 0,0 l/m 0 min 0 min 215 W/m 25,7 km/h (4 Bft) 100,00 %
09.10.2019 12:46 13,8 C 14,4 C 13,3 C 85 % 1006,7 hPa 0,0 l/m 0 min 0 min 207 W/m 25,7 km/h (4 Bft) 100,00 %
09.10.2019 12:48 13,9 C 14,4 C 13,3 C 84 % 1006,7 hPa 0,0 l/m 0 min 0 min 216 W/m 25,7 km/h (4 Bft) 100,00 %
09.10.2019 12:50 13,9 C 14,4 C 13,3 C 84 % 1006,6 hPa 0,0 l/m 0 min 0 min 217 W/m 32,2 km/h (5 Bft) 100,00 %
09.10.2019 12:52 14,0 C 14,4 C 13,3 C 84 % 1006,6 hPa 0,0 l/m 0 min 0 min 221 W/m 19,3 km/h (3 Bft) 100,00 %
09.10.2019 12:54 14,1 C 14,4 C 13,9 C 84 % 1006,6 hPa 0,0 l/m 0 min 0 min 231 W/m 25,7 km/h (4 Bft) 100,00 %
09.10.2019 12:56 14,1 C 14,4 C 13,9 C 84 % 1006,5 hPa 0,0 l/m 0 min 0 min 233 W/m 32,2 km/h (5 Bft) 100,00 %
09.10.2019 12:58 14,1 C 14,4 C 13,9 C 84 % 1006,5 hPa 0,0 l/m 0 min 0 min 248 W/m 32,2 km/h (5 Bft) 100,00 %
09.10.2019 13:00 14,2 C 14,4 C 13,9 C 83 % 1006,5 hPa 0,0 l/m 0 min 0 min 225 W/m 32,2 km/h (5 Bft) 97,87 %
09.10.2019 13:02 14,3 C 14,4 C 13,3 C 83 % 1006,4 hPa 0,0 l/m 0 min 0 min 185 W/m 19,3 km/h (3 Bft) 100,00 %
09.10.2019 13:04 14,3 C 14,4 C 13,3 C 83 % 1006,4 hPa 0,0 l/m 0 min 0 min 162 W/m 25,7 km/h (4 Bft) 100,00 %
09.10.2019 13:06 14,3 C 14,4 C 13,3 C 83 % 1006,3 hPa 0,0 l/m 0 min 0 min 171 W/m 29,0 km/h (5 Bft) 100,00 %
09.10.2019 13:08 14,3 C 14,4 C 13,3 C 83 % 1006,3 hPa 0,0 l/m 0 min 0 min 173 W/m 22,5 km/h (4 Bft) 97,87 %
09.10.2019 13:10 14,3 C 14,4 C 13,9 C 83 % 1006,3 hPa 0,0 l/m 0 min 0 min 188 W/m 29,0 km/h (5 Bft) 97,87 %
09.10.2019 13:12 14,3 C 14,4 C 13,9 C 82 % 1006,3 hPa 0,0 l/m 0 min 0 min 208 W/m 32,2 km/h (5 Bft) 97,87 %
09.10.2019 13:14 14,3 C 14,4 C 13,9 C 82 % 1006,2 hPa 0,0 l/m 0 min 0 min 169 W/m 35,4 km/h (5 Bft) 97,87 %
09.10.2019 13:16 14,3 C 15,0 C 13,3 C 82 % 1006,2 hPa 0,0 l/m 0 min 0 min 201 W/m 29,0 km/h (5 Bft) 97,87 %
09.10.2019 13:18 14,3 C 15,6 C 13,9 C 82 % 1006,2 hPa 0,0 l/m 0 min 0 min 257 W/m 25,7 km/h (4 Bft) 97,83 %
09.10.2019 13:20 14,3 C 16,7 C 14,4 C 82 % 1006,2 hPa 0,0 l/m 2 min 0 min 420 W/m 19,3 km/h (3 Bft) 97,87 %
09.10.2019 13:22 14,4 C 17,8 C 15,6 C 82 % 1006,2 hPa 0,0 l/m 2 min 0 min 497 W/m 19,3 km/h (3 Bft) 97,87 %
09.10.2019 13:24 14,6 C 17,2 C 15,6 C 82 % 1006,1 hPa 0,0 l/m 2 min 0 min 467 W/m 25,7 km/h (4 Bft) 97,87 %
09.10.2019 13:26 14,6 C 15,6 C 14,4 C 81 % 1006,1 hPa 0,0 l/m 2 min 0 min 290 W/m 41,8 km/h (6 Bft) 97,87 %
09.10.2019 13:28 14,7 C 15,0 C 14,4 C 80 % 1006,0 hPa 0,0 l/m 0 min 0 min 231 W/m 32,2 km/h (5 Bft) 97,87 %
09.10.2019 13:30 14,7 C 15,0 C 13,9 C 80 % 1006,0 hPa 0,0 l/m 0 min 0 min 214 W/m 29,0 km/h (5 Bft) 97,83 %
09.10.2019 13:32 14,8 C 15,0 C 13,9 C 80 % 1006,0 hPa 0,0 l/m 0 min 0 min 184 W/m 29,0 km/h (5 Bft) 97,87 %
09.10.2019 13:34 14,8 C 15,0 C 13,9 C 80 % 1005,9 hPa 0,0 l/m 0 min 0 min 176 W/m 19,3 km/h (3 Bft) 97,87 %
09.10.2019 13:36 14,8 C 15,0 C 13,9 C 80 % 1006,0 hPa 0,0 l/m 0 min 0 min 185 W/m 25,7 km/h (4 Bft) 100,00 %
09.10.2019 13:38 14,8 C 15,0 C 13,9 C 80 % 1006,0 hPa 0,0 l/m 0 min 0 min 169 W/m 25,7 km/h (4 Bft) 97,87 %
09.10.2019 13:40 14,8 C 15,0 C 13,9 C 80 % 1005,9 hPa 0,0 l/m 0 min 0 min 154 W/m 25,7 km/h (4 Bft) 93,48 %
09.10.2019 13:42 14,8 C 15,0 C 13,9 C 80 % 1005,9 hPa 0,0 l/m 0 min 0 min 176 W/m 25,7 km/h (4 Bft) 95,74 %
09.10.2019 13:44 14,8 C 15,0 C 13,9 C 80 % 1005,8 hPa 0,0 l/m 0 min 0 min 198 W/m 25,7 km/h (4 Bft) 93,62 %
09.10.2019 13:46 14,8 C 15,0 C 13,9 C 80 % 1005,8 hPa 0,0 l/m 0 min 0 min 256 W/m 25,7 km/h (4 Bft) 91,49 %
09.10.2019 13:48 14,8 C 15,0 C 13,9 C 80 % 1005,7 hPa 0,0 l/m 0 min 0 min 191 W/m 19,3 km/h (3 Bft) 95,74 %
09.10.2019 13:50 14,8 C 15,0 C 13,9 C 80 % 1005,7 hPa 0,0 l/m 0 min 0 min 148 W/m 29,0 km/h (5 Bft) 95,74 %
09.10.2019 13:52 14,8 C 14,4 C 13,9 C 79 % 1005,6 hPa 0,0 l/m 0 min 0 min 120 W/m 45,1 km/h (6 Bft) 95,65 %
09.10.2019 13:54 14,8 C 14,4 C 13,9 C 78 % 1005,7 hPa 0,0 l/m 0 min 0 min 103 W/m 35,4 km/h (5 Bft) 93,62 %
09.10.2019 13:56 14,8 C 14,4 C 13,3 C 78 % 1005,6 hPa 0,0 l/m 0 min 0 min 124 W/m 25,7 km/h (4 Bft) 95,74 %
09.10.2019 13:58 14,7 C 14,4 C 13,9 C 78 % 1005,7 hPa 0,0 l/m 0 min 0 min 143 W/m 19,3 km/h (3 Bft) 97,87 %
09.10.2019 14:00 14,7 C 14,4 C 13,9 C 79 % 1005,7 hPa 0,0 l/m 0 min 0 min 147 W/m 16,1 km/h (3 Bft) 97,87 %
09.10.2019 14:02 14,7 C 14,4 C 13,9 C 78 % 1005,6 hPa 0,0 l/m 0 min 0 min 146 W/m 38,6 km/h (5 Bft) 97,87 %
09.10.2019 14:04 14,7 C 14,4 C 13,3 C 78 % 1005,6 hPa 0,0 l/m 0 min 0 min 137 W/m 25,7 km/h (4 Bft) 95,65 %
09.10.2019 14:06 14,6 C 13,9 C 12,8 C 77 % 1005,6 hPa 0,0 l/m 0 min 0 min 118 W/m 22,5 km/h (4 Bft) 93,62 %
09.10.2019 14:08 14,6 C 13,9 C 12,8 C 78 % 1005,7 hPa 0,0 l/m 0 min 2 min 93 W/m 22,5 km/h (4 Bft) 95,74 %
09.10.2019 14:10 14,6 C 13,9 C 12,8 C 79 % 1005,8 hPa 0,0 l/m 0 min 2 min 83 W/m 19,3 km/h (3 Bft) 97,87 %
09.10.2019 14:12 14,6 C 13,3 C 12,2 C 79 % 1005,7 hPa 0,0 l/m 0 min 2 min 61 W/m 16,1 km/h (3 Bft) 91,49 %
09.10.2019 14:14 14,5 C 13,3 C 12,2 C 80 % 1005,7 hPa 0,0 l/m 0 min 2 min 76 W/m 19,3 km/h (3 Bft) 93,48 %
09.10.2019 14:16 14,4 C 12,8 C 12,2 C 80 % 1005,7 hPa 0,0 l/m 0 min 2 min 73 W/m 16,1 km/h (3 Bft) 95,74 %
09.10.2019 14:18 14,4 C 11,7 C 11,7 C 81 % 1005,7 hPa 0,0 l/m 0 min 2 min 69 W/m 19,3 km/h (3 Bft) 95,74 %
09.10.2019 14:20 14,3 C 11,7 C 11,1 C 82 % 1005,6 hPa 0,0 l/m 0 min 2 min 92 W/m 29,0 km/h (5 Bft) 97,87 %
09.10.2019 14:22 14,3 C 11,7 C 11,1 C 82 % 1005,7 hPa 0,0 l/m 0 min 2 min 130 W/m 19,3 km/h (3 Bft) 95,74 %
09.10.2019 14:24 14,2 C 11,7 C 11,1 C 83 % 1005,7 hPa 0,0 l/m 0 min 2 min 166 W/m 16,1 km/h (3 Bft) 97,87 %
09.10.2019 14:26 14,1 C 12,2 C 11,1 C 84 % 1005,7 hPa 0,0 l/m 0 min 2 min 182 W/m 32,2 km/h (5 Bft) 95,65 %
09.10.2019 14:28 14,0 C 12,2 C 11,7 C 84 % 1005,7 hPa 0,0 l/m 0 min 2 min 223 W/m 16,1 km/h (3 Bft) 97,87 %
09.10.2019 14:30 13,9 C 12,8 C 11,7 C 84 % 1005,7 hPa 0,0 l/m 0 min 2 min 247 W/m 22,5 km/h (4 Bft) 97,87 %
09.10.2019 14:32 13,9 C 13,3 C 11,7 C 84 % 1005,6 hPa 0,0 l/m 0 min 0 min 214 W/m 22,5 km/h (4 Bft) 95,74 %
09.10.2019 14:34 13,9 C 13,9 C 12,2 C 84 % 1005,7 hPa 0,0 l/m 0 min 0 min 223 W/m 25,7 km/h (4 Bft) 97,87 %
09.10.2019 14:36 13,9 C 13,9 C 12,2 C 85 % 1005,7 hPa 0,0 l/m 0 min 0 min 231 W/m 12,9 km/h (3 Bft) 97,87 %
09.10.2019 14:38 13,9 C 14,4 C 12,2 C 85 % 1005,7 hPa 0,0 l/m 0 min 0 min 213 W/m 16,1 km/h (3 Bft) 97,83 %
09.10.2019 14:40 14,0 C 14,4 C 12,8 C 85 % 1005,6 hPa 0,0 l/m 0 min 0 min 197 W/m 12,9 km/h (3 Bft) 97,87 %
09.10.2019 14:42 14,0 C 14,4 C 12,8 C 85 % 1005,6 hPa 0,0 l/m 0 min 0 min 201 W/m 16,1 km/h (3 Bft) 97,87 %
09.10.2019 14:44 14,0 C 14,4 C 12,8 C 84 % 1005,6 hPa 0,0 l/m 0 min 0 min 188 W/m 19,3 km/h (3 Bft) 95,74 %
09.10.2019 14:46 14,0 C 14,4 C 13,3 C 84 % 1005,6 hPa 0,0 l/m 0 min 0 min 182 W/m 16,1 km/h (3 Bft) 97,87 %
09.10.2019 14:48 14,1 C 14,4 C 13,3 C 83 % 1005,6 hPa 0,0 l/m 0 min 0 min 183 W/m 25,7 km/h (4 Bft) 97,87 %
09.10.2019 14:50 14,1 C 14,4 C 13,3 C 83 % 1005,6 hPa 0,0 l/m 0 min 0 min 143 W/m 25,7 km/h (4 Bft) 95,65 %
09.10.2019 14:52 14,1 C 13,9 C 13,3 C 83 % 1005,5 hPa 0,0 l/m 0 min 0 min 81 W/m 38,6 km/h (5 Bft) 97,87 %
09.10.2019 14:54 14,1 C 13,9 C 12,8 C 82 % 1005,5 hPa 0,0 l/m 0 min 0 min 56 W/m 25,7 km/h (4 Bft) 95,74 %
09.10.2019 14:56 14,1 C 13,3 C 12,8 C 81 % 1005,5 hPa 0,0 l/m 0 min 0 min 50 W/m 32,2 km/h (5 Bft) 97,87 %
09.10.2019 14:58 14,1 C 13,3 C 12,8 C 82 % 1005,4 hPa 0,0 l/m 0 min 0 min 38 W/m 16,1 km/h (3 Bft) 97,87 %
09.10.2019 15:00 14,1 C 13,3 C 12,8 C 81 % 1005,5 hPa 0,0 l/m 0 min 0 min 36 W/m 25,7 km/h (4 Bft) 97,87 %
09.10.2019 15:02 14,0 C 13,3 C 12,8 C 81 % 1005,5 hPa 0,0 l/m 0 min 0 min 43 W/m 29,0 km/h (5 Bft) 100,00 %
09.10.2019 15:04 14,0 C 12,8 C 12,2 C 81 % 1005,6 hPa 0,0 l/m 0 min 2 min 44 W/m 16,1 km/h (3 Bft) 100,00 %
09.10.2019 15:06 14,0 C 11,7 C 11,1 C 82 % 1005,7 hPa 0,0 l/m 0 min 2 min 43 W/m 19,3 km/h (3 Bft) 100,00 %
09.10.2019 15:08 13,9 C 10,6 C 10,6 C 83 % 1005,7 hPa 0,2 l/m 0 min 2 min 51 W/m 41,8 km/h (6 Bft) 100,00 %
09.10.2019 15:10 13,8 C 10,6 C 10,0 C 83 % 1005,6 hPa 0,0 l/m 0 min 2 min 53 W/m 25,7 km/h (4 Bft) 100,00 %
09.10.2019 15:12 13,7 C 10,0 C 10,0 C 84 % 1005,8 hPa 0,2 l/m 0 min 2 min 40 W/m 22,5 km/h (4 Bft) 100,00 %
09.10.2019 15:14 13,6 C 10,0 C 10,0 C 85 % 1005,8 hPa 0,2 l/m 0 min 2 min 52 W/m 25,7 km/h (4 Bft) 100,00 %
09.10.2019 15:16 13,5 C 10,6 C 10,0 C 86 % 1005,8 hPa 0,0 l/m 0 min 2 min 75 W/m 22,5 km/h (4 Bft) 100,00 %
09.10.2019 15:18 13,3 C 10,6 C 10,0 C 86 % 1005,8 hPa 0,0 l/m 0 min 2 min 108 W/m 22,5 km/h (4 Bft) 100,00 %
09.10.2019 15:20 13,3 C 11,1 C 10,0 C 87 % 1005,8 hPa 0,0 l/m 0 min 0 min 141 W/m 22,5 km/h (4 Bft) 100,00 %
09.10.2019 15:22 13,2 C 11,1 C 10,6 C 87 % 1005,8 hPa 0,0 l/m 0 min 2 min 162 W/m 16,1 km/h (3 Bft) 100,00 %
09.10.2019 15:24 13,1 C 11,7 C 10,6 C 88 % 1005,8 hPa 0,0 l/m 0 min 0 min 183 W/m 16,1 km/h (3 Bft) 97,87 %
09.10.2019 15:26 13,0 C 11,7 C 10,6 C 88 % 1005,8 hPa 0,0 l/m 0 min 0 min 193 W/m 19,3 km/h (3 Bft) 97,83 %
09.10.2019 15:28 12,9 C 11,7 C 10,6 C 88 % 1005,8 hPa 0,0 l/m 0 min 0 min 186 W/m 22,5 km/h (4 Bft) 100,00 %
09.10.2019 15:30 12,9 C 11,7 C 11,1 C 89 % 1005,8 hPa 0,0 l/m 0 min 0 min 172 W/m 22,5 km/h (4 Bft) 97,87 %
09.10.2019 15:32 12,9 C 11,7 C 11,1 C 89 % 1005,9 hPa 0,0 l/m 0 min 0 min 154 W/m 16,1 km/h (3 Bft) 100,00 %
09.10.2019 15:34 12,8 C 11,7 C 10,6 C 90 % 1005,8 hPa 0,0 l/m 0 min 0 min 149 W/m 22,5 km/h (4 Bft) 100,00 %
09.10.2019 15:36 12,8 C 11,7 C 10,6 C 89 % 1005,8 hPa 0,0 l/m 0 min 0 min 153 W/m 29,0 km/h (5 Bft) 100,00 %
09.10.2019 15:38 12,7 C 11,7 C 10,6 C 89 % 1005,9 hPa 0,0 l/m 0 min 0 min 150 W/m 22,5 km/h (4 Bft) 100,00 %
09.10.2019 15:40 12,7 C 11,7 C 10,6 C 89 % 1005,8 hPa 0,0 l/m 0 min 0 min 145 W/m 22,5 km/h (4 Bft) 97,87 %
09.10.2019 15:42 12,7 C 11,7 C 10,6 C 89 % 1005,9 hPa 0,0 l/m 0 min 0 min 146 W/m 29,0 km/h (5 Bft) 100,00 %
09.10.2019 15:44 12,6 C 11,7 C 10,6 C 89 % 1005,8 hPa 0,0 l/m 0 min 0 min 148 W/m 16,1 km/h (3 Bft) 100,00 %
09.10.2019 15:46 12,6 C 11,7 C 10,6 C 89 % 1005,8 hPa 0,0 l/m 0 min 0 min 142 W/m 19,3 km/h (3 Bft) 54,55 %
09.10.2019 15:48 12,6 C 11,7 C 10,6 C 90 % 1005,8 hPa 0,0 l/m 0 min 0 min 134 W/m 12,9 km/h (3 Bft) 100,00 %
09.10.2019 15:50 12,6 C 11,7 C 10,6 C 89 % 1005,8 hPa 0,0 l/m 0 min 0 min 136 W/m 19,3 km/h (3 Bft) 100,00 %
09.10.2019 15:52 12,6 C 11,7 C 10,6 C 89 % 1005,8 hPa 0,0 l/m 0 min 0 min 145 W/m 22,5 km/h (4 Bft) 100,00 %
09.10.2019 15:54 12,6 C 11,7 C 10,6 C 89 % 1005,8 hPa 0,0 l/m 0 min 0 min 161 W/m 16,1 km/h (3 Bft) 100,00 %
09.10.2019 15:56 12,6 C 11,7 C 10,6 C 89 % 1005,8 hPa 0,0 l/m 0 min 0 min 185 W/m 16,1 km/h (3 Bft) 100,00 %
09.10.2019 15:58 12,6 C 12,2 C 10,6 C 89 % 1005,9 hPa 0,0 l/m 2 min 0 min 215 W/m 16,1 km/h (3 Bft) 97,87 %
09.10.2019 16:00 12,6 C 12,8 C 10,6 C 89 % 1005,9 hPa 0,0 l/m 2 min 0 min 289 W/m 25,7 km/h (4 Bft) 100,00 %
09.10.2019 16:02 12,6 C 13,3 C 11,1 C 89 % 1005,8 hPa 0,0 l/m 2 min 0 min 306 W/m 16,1 km/h (3 Bft) 100,00 %
09.10.2019 16:04 12,7 C 12,8 C 11,1 C 89 % 1005,9 hPa 0,0 l/m 2 min 0 min 301 W/m 38,6 km/h (5 Bft) 100,00 %
09.10.2019 16:06 12,7 C 12,8 C 10,6 C 89 % 1005,9 hPa 0,0 l/m 2 min 0 min 229 W/m 19,3 km/h (3 Bft) 100,00 %
09.10.2019 16:08 12,7 C 13,3 C 10,6 C 89 % 1005,9 hPa 0,0 l/m 2 min 0 min 268 W/m 22,5 km/h (4 Bft) 100,00 %
09.10.2019 16:10 12,8 C 12,8 C 11,1 C 88 % 1006,0 hPa 0,0 l/m 2 min 0 min 264 W/m 12,9 km/h (3 Bft) 100,00 %
09.10.2019 16:12 12,8 C 12,2 C 10,6 C 88 % 1006,0 hPa 0,0 l/m 0 min 0 min 140 W/m 19,3 km/h (3 Bft) 100,00 %
09.10.2019 16:14 12,8 C 12,8 C 11,1 C 88 % 1006,0 hPa 0,0 l/m 2 min 0 min 209 W/m 16,1 km/h (3 Bft) 100,00 %
09.10.2019 16:16 12,8 C 12,8 C 11,1 C 88 % 1006,0 hPa 0,0 l/m 2 min 0 min 213 W/m 25,7 km/h (4 Bft) 97,87 %
09.10.2019 16:18 12,8 C 12,2 C 10,6 C 87 % 1006,0 hPa 0,0 l/m 0 min 0 min 127 W/m 32,2 km/h (5 Bft) 97,87 %
09.10.2019 16:20 12,8 C 12,2 C 10,6 C 87 % 1006,0 hPa 0,0 l/m 0 min 0 min 130 W/m 22,5 km/h (4 Bft) 95,74 %
09.10.2019 16:22 12,8 C 12,2 C 10,6 C 87 % 1006,0 hPa 0,0 l/m 0 min 0 min 122 W/m 22,5 km/h (4 Bft) 93,48 %
09.10.2019 16:24 12,7 C 12,2 C 10,6 C 86 % 1006,0 hPa 0,0 l/m 0 min 0 min 113 W/m 25,7 km/h (4 Bft) 95,74 %
09.10.2019 16:26 12,7 C 12,8 C 10,6 C 86 % 1006,1 hPa 0,0 l/m 2 min 0 min 198 W/m 19,3 km/h (3 Bft) 93,62 %
09.10.2019 16:28 12,7 C 12,8 C 10,6 C 87 % 1006,0 hPa 0,0 l/m 0 min 0 min 157 W/m 22,5 km/h (4 Bft) 95,74 %
09.10.2019 16:30 12,7 C 12,8 C 10,6 C 87 % 1006,0 hPa 0,0 l/m 2 min 0 min 172 W/m 19,3 km/h (3 Bft) 95,74 %
09.10.2019 16:32 12,7 C 14,4 C 11,1 C 87 % 1006,1 hPa 0,0 l/m 2 min 0 min 193 W/m 16,1 km/h (3 Bft) 93,62 %
09.10.2019 16:34 12,8 C 15,6 C 11,7 C 87 % 1006,1 hPa 0,0 l/m 2 min 0 min 388 W/m 12,9 km/h (3 Bft) 95,65 %
09.10.2019 16:36 12,8 C 16,7 C 12,2 C 87 % 1006,1 hPa 0,0 l/m 2 min 0 min 437 W/m 16,1 km/h (3 Bft) 97,87 %
09.10.2019 16:38 12,9 C 16,1 C 12,2 C 88 % 1006,0 hPa 0,0 l/m 2 min 0 min 370 W/m 19,3 km/h (3 Bft) 95,74 %
09.10.2019 16:40 13,0 C 15,6 C 11,7 C 87 % 1006,0 hPa 0,0 l/m 2 min 0 min 287 W/m 16,1 km/h (3 Bft) 95,74 %
09.10.2019 16:42 13,1 C 14,4 C 11,1 C 87 % 1005,9 hPa 0,0 l/m 2 min 0 min 175 W/m 16,1 km/h (3 Bft) 93,62 %
09.10.2019 16:44 13,1 C 13,3 C 11,1 C 86 % 1006,0 hPa 0,0 l/m 0 min 0 min 128 W/m 25,7 km/h (4 Bft) 95,74 %
09.10.2019 16:46 13,1 C 12,8 C 10,6 C 85 % 1006,0 hPa 0,0 l/m 0 min 0 min 121 W/m 16,1 km/h (3 Bft) 95,65 %
09.10.2019 16:48 13,1 C 12,8 C 10,6 C 85 % 1006,0 hPa 0,0 l/m 0 min 0 min 131 W/m 29,0 km/h (5 Bft) 95,74 %
09.10.2019 16:50 13,1 C 13,3 C 11,1 C 85 % 1006,0 hPa 0,0 l/m 2 min 0 min 190 W/m 19,3 km/h (3 Bft) 91,49 %
09.10.2019 16:52 13,1 C 14,4 C 11,1 C 86 % 1006,0 hPa 0,0 l/m 2 min 0 min 326 W/m 19,3 km/h (3 Bft) 93,62 %
09.10.2019 16:54 13,1 C 16,1 C 11,7 C 86 % 1006,0 hPa 0,0 l/m 2 min 0 min 293 W/m 22,5 km/h (4 Bft) 95,74 %
09.10.2019 16:56 13,2 C 16,7 C 11,7 C 86 % 1005,9 hPa 0,0 l/m 2 min 0 min 289 W/m 22,5 km/h (4 Bft) 95,74 %
09.10.2019 16:58 13,3 C 16,7 C 11,7 C 86 % 1005,9 hPa 0,0 l/m 2 min 0 min 285 W/m 25,7 km/h (4 Bft) 93,48 %
09.10.2019 17:00 13,3 C 15,6 C 11,7 C 86 % 1005,9 hPa 0,0 l/m 2 min 0 min 381 W/m 22,5 km/h (4 Bft) 95,74 %
09.10.2019 17:02 13,4 C 15,0 C 11,7 C 85 % 1006,0 hPa 0,0 l/m 2 min 0 min 273 W/m 29,0 km/h (5 Bft) 97,87 %
09.10.2019 17:04 13,4 C 14,4 C 11,7 C 85 % 1005,9 hPa 0,0 l/m 2 min 0 min 196 W/m 19,3 km/h (3 Bft) 95,74 %
09.10.2019 17:06 13,4 C 13,9 C 11,1 C 85 % 1005,9 hPa 0,0 l/m 2 min 0 min 219 W/m 22,5 km/h (4 Bft) 97,87 %
09.10.2019 17:08 13,4 C 13,9 C 11,1 C 84 % 1005,9 hPa 0,0 l/m 2 min 0 min 219 W/m 12,9 km/h (3 Bft) 95,74 %
09.10.2019 17:10 13,4 C 13,3 C 11,1 C 84 % 1005,9 hPa 0,0 l/m 2 min 0 min 166 W/m 19,3 km/h (3 Bft) 100,00 %
09.10.2019 17:12 13,4 C 12,8 C 11,1 C 84 % 1005,9 hPa 0,0 l/m 2 min 0 min 124 W/m 35,4 km/h (5 Bft) 95,74 %
09.10.2019 17:14 13,4 C 12,8 C 11,1 C 84 % 1005,9 hPa 0,0 l/m 0 min 0 min 101 W/m 25,7 km/h (4 Bft) 97,87 %
09.10.2019 17:16 13,3 C 12,8 C 11,1 C 84 % 1005,9 hPa 0,0 l/m 0 min 0 min 68 W/m 16,1 km/h (3 Bft) 95,74 %
09.10.2019 17:18 13,3 C 12,2 C 11,1 C 84 % 1006,0 hPa 0,0 l/m 0 min 0 min 73 W/m 22,5 km/h (4 Bft) 95,74 %
09.10.2019 17:20 13,3 C 12,2 C 10,6 C 84 % 1006,0 hPa 0,0 l/m 0 min 0 min 52 W/m 19,3 km/h (3 Bft) 97,87 %
09.10.2019 17:22 13,2 C 12,2 C 10,6 C 84 % 1006,0 hPa 0,0 l/m 0 min 0 min 42 W/m 25,7 km/h (4 Bft) 95,65 %
09.10.2019 17:24 13,1 C 12,2 C 10,6 C 84 % 1006,0 hPa 0,0 l/m 0 min 0 min 31 W/m 22,5 km/h (4 Bft) 97,87 %
09.10.2019 17:26 13,1 C 12,2 C 10,6 C 85 % 1006,1 hPa 0,0 l/m 0 min 0 min 20 W/m 22,5 km/h (4 Bft) 95,74 %
09.10.2019 17:28 13,1 C 11,7 C 10,6 C 85 % 1006,1 hPa 0,0 l/m 0 min 0 min 15 W/m 16,1 km/h (3 Bft) 97,87 %
09.10.2019 17:30 13,0 C 11,7 C 10,6 C 85 % 1006,1 hPa 0,0 l/m 0 min 0 min 20 W/m 6,4 km/h (2 Bft) 95,74 %
09.10.2019 17:32 12,9 C 11,7 C 10,6 C 85 % 1006,1 hPa 0,0 l/m 0 min 0 min 31 W/m 12,9 km/h (3 Bft) 97,83 %
09.10.2019 17:34 12,9 C 11,7 C 10,6 C 85 % 1006,1 hPa 0,0 l/m 0 min 0 min 28 W/m 16,1 km/h (3 Bft) 97,87 %
09.10.2019 17:36 12,9 C 11,7 C 10,6 C 86 % 1006,2 hPa 0,0 l/m 0 min 0 min 35 W/m 12,9 km/h (3 Bft) 98,15 %
09.10.2019 17:38 12,9 C 12,2 C 10,6 C 86 % 1006,2 hPa 0,0 l/m 0 min 0 min 51 W/m 16,1 km/h (3 Bft) 97,14 %
09.10.2019 17:40 12,8 C 12,2 C 10,6 C 86 % 1006,2 hPa 0,0 l/m 0 min 0 min 67 W/m 16,1 km/h (3 Bft) 95,74 %
09.10.2019 17:42 12,8 C 12,2 C 10,6 C 86 % 1006,2 hPa 0,0 l/m 0 min 0 min 63 W/m 9,7 km/h (2 Bft) 95,65 %
09.10.2019 17:44 12,8 C 12,2 C 10,6 C 87 % 1006,1 hPa 0,0 l/m 0 min 0 min 65 W/m 12,9 km/h (3 Bft) 97,87 %
09.10.2019 17:46 12,8 C 12,2 C 10,6 C 87 % 1006,2 hPa 0,0 l/m 0 min 0 min 60 W/m 16,1 km/h (3 Bft) 95,74 %
09.10.2019 17:48 12,7 C 12,2 C 10,6 C 87 % 1006,2 hPa 0,0 l/m 0 min 0 min 62 W/m 12,9 km/h (3 Bft) 95,74 %
09.10.2019 17:50 12,7 C 12,2 C 10,6 C 87 % 1006,2 hPa 0,0 l/m 0 min 0 min 53 W/m 19,3 km/h (3 Bft) 97,87 %
09.10.2019 17:52 12,7 C 12,2 C 10,6 C 86 % 1006,2 hPa 0,0 l/m 0 min 0 min 48 W/m 25,7 km/h (4 Bft) 97,87 %
09.10.2019 17:54 12,7 C 12,2 C 11,1 C 86 % 1006,1 hPa 0,0 l/m 0 min 0 min 47 W/m 16,1 km/h (3 Bft) 97,83 %
09.10.2019 17:56 12,7 C 12,2 C 11,1 C 86 % 1006,2 hPa 0,0 l/m 0 min 0 min 44 W/m 16,1 km/h (3 Bft) 97,87 %
09.10.2019 17:58 12,7 C 12,2 C 11,7 C 86 % 1006,1 hPa 0,0 l/m 0 min 0 min 38 W/m 19,3 km/h (3 Bft) 97,87 %
09.10.2019 18:00 12,7 C 12,2 C 11,7 C 86 % 1006,1 hPa 0,0 l/m 0 min 0 min 41 W/m 19,3 km/h (3 Bft) 97,87 %
09.10.2019 18:02 12,7 C 12,2 C 11,7 C 86 % 1006,1 hPa 0,0 l/m 0 min 0 min 48 W/m 12,9 km/h (3 Bft) 97,87 %
09.10.2019 18:04 12,6 C 12,2 C 11,7 C 86 % 1006,2 hPa 0,0 l/m 2 min 0 min 63 W/m 19,3 km/h (3 Bft) 100,00 %
09.10.2019 18:08 12,6 C 12,2 C 11,7 C 86 % 1006,2 hPa 0,0 l/m 0 min 0 min 54 W/m 16,1 km/h (3 Bft) 100,00 %
09.10.2019 18:10 12,6 C 12,2 C 11,7 C 87 % 1006,2 hPa 0,0 l/m 0 min 0 min 37 W/m 9,7 km/h (2 Bft) 100,00 %
09.10.2019 18:12 12,6 C 11,7 C 11,1 C 87 % 1006,2 hPa 0,0 l/m 0 min 0 min 28 W/m 9,7 km/h (2 Bft) 97,87 %
09.10.2019 18:14 12,6 C 11,7 C 11,1 C 87 % 1006,2 hPa 0,0 l/m 0 min 0 min 26 W/m 16,1 km/h (3 Bft) 100,00 %
09.10.2019 18:16 12,6 C 11,7 C 11,1 C 87 % 1006,3 hPa 0,0 l/m 0 min 0 min 26 W/m 16,1 km/h (3 Bft) 100,00 %
09.10.2019 18:18 12,6 C 11,7 C 11,1 C 87 % 1006,3 hPa 0,0 l/m 0 min 0 min 29 W/m 12,9 km/h (3 Bft) 100,00 %
09.10.2019 18:20 12,6 C 11,7 C 11,1 C 87 % 1006,3 hPa 0,0 l/m 0 min 0 min 26 W/m 16,1 km/h (3 Bft) 100,00 %
09.10.2019 18:22 12,6 C 11,7 C 11,1 C 87 % 1006,3 hPa 0,0 l/m 0 min 0 min 22 W/m 12,9 km/h (3 Bft) 95,74 %
09.10.2019 18:24 12,5 C 11,7 C 11,1 C 87 % 1006,3 hPa 0,0 l/m 0 min 0 min 19 W/m 12,9 km/h (3 Bft) 100,00 %
09.10.2019 18:26 12,5 C 11,7 C 11,1 C 87 % 1006,3 hPa 0,0 l/m 0 min 0 min 18 W/m 12,9 km/h (3 Bft) 100,00 %
09.10.2019 18:28 12,4 C 11,1 C 10,6 C 87 % 1006,3 hPa 0,0 l/m 0 min 0 min 16 W/m 22,5 km/h (4 Bft) 100,00 %
09.10.2019 18:30 12,4 C 11,1 C 10,6 C 87 % 1006,3 hPa 0,0 l/m 0 min 0 min 15 W/m 9,7 km/h (2 Bft) 100,00 %
09.10.2019 18:32 12,4 C 11,1 C 10,6 C 87 % 1006,3 hPa 0,0 l/m 0 min 0 min 14 W/m 16,1 km/h (3 Bft) 100,00 %
09.10.2019 18:34 12,4 C 11,1 C 10,6 C 87 % 1006,4 hPa 0,0 l/m 0 min 0 min 12 W/m 12,9 km/h (3 Bft) 100,00 %
09.10.2019 18:36 12,3 C 11,1 C 10,6 C 87 % 1006,4 hPa 0,0 l/m 0 min 0 min 12 W/m 16,1 km/h (3 Bft) 97,87 %
09.10.2019 18:38 12,3 C 11,1 C 10,6 C 87 % 1006,4 hPa 0,0 l/m 0 min 0 min 10 W/m 9,7 km/h (2 Bft) 100,00 %
09.10.2019 18:40 12,3 C 11,1 C 10,6 C 87 % 1006,5 hPa 0,0 l/m 0 min 0 min 9 W/m 6,4 km/h (2 Bft) 100,00 %
09.10.2019 18:42 12,3 C 11,1 C 11,1 C 88 % 1006,5 hPa 0,0 l/m 0 min 0 min 7 W/m 16,1 km/h (3 Bft) 100,00 %
09.10.2019 18:44 12,3 C 11,1 C 11,1 C 88 % 1006,5 hPa 0,0 l/m 0 min 0 min 7 W/m 12,9 km/h (3 Bft) 100,00 %
09.10.2019 18:46 12,2 C 11,1 C 10,6 C 88 % 1006,5 hPa 0,0 l/m 0 min 0 min 5 W/m 9,7 km/h (2 Bft) 97,87 %
09.10.2019 18:48 12,2 C 11,1 C 10,6 C 88 % 1006,5 hPa 0,0 l/m 0 min 0 min 5 W/m 12,9 km/h (3 Bft) 100,00 %
09.10.2019 18:50 12,2 C 11,1 C 11,1 C 88 % 1006,5 hPa 0,0 l/m 0 min 0 min 3 W/m 6,4 km/h (2 Bft) 100,00 %
09.10.2019 18:52 12,2 C 11,1 C 11,1 C 88 % 1006,6 hPa 0,0 l/m 0 min 0 min 0 W/m 19,3 km/h (3 Bft) 97,83 %
09.10.2019 18:54 12,2 C 11,7 C 11,1 C 88 % 1006,5 hPa 0,0 l/m 0 min 0 min 0 W/m 19,3 km/h (3 Bft) 97,87 %
09.10.2019 18:56 12,2 C 11,7 C 11,1 C 88 % 1006,6 hPa 0,0 l/m 0 min 0 min 0 W/m 16,1 km/h (3 Bft) 97,87 %
09.10.2019 18:58 12,2 C 11,7 C 11,1 C 88 % 1006,6 hPa 0,0 l/m 0 min 0 min 0 W/m 16,1 km/h (3 Bft) 97,87 %
09.10.2019 19:00 12,2 C 11,7 C 11,1 C 88 % 1006,5 hPa 0,0 l/m 0 min 0 min 0 W/m 16,1 km/h (3 Bft) 97,87 %
09.10.2019 19:02 12,2 C 11,7 C 11,1 C 88 % 1006,5 hPa 0,0 l/m 0 min 0 min 0 W/m 16,1 km/h (3 Bft) 95,74 %
09.10.2019 19:04 12,2 C 11,7 C 11,1 C 88 % 1006,6 hPa 0,0 l/m 0 min 0 min 0 W/m 19,3 km/h (3 Bft) 97,83 %
09.10.2019 19:06 12,2 C 11,7 C 11,1 C 88 % 1006,6 hPa 0,0 l/m 0 min 0 min 0 W/m 16,1 km/h (3 Bft) 97,87 %
09.10.2019 19:08 12,2 C 11,7 C 11,1 C 88 % 1006,6 hPa 0,0 l/m 0 min 0 min 0 W/m 16,1 km/h (3 Bft) 97,87 %
09.10.2019 19:10 12,2 C 11,7 C 11,1 C 88 % 1006,6 hPa 0,0 l/m 0 min 0 min 0 W/m 16,1 km/h (3 Bft) 95,74 %
09.10.2019 19:12 12,2 C 11,7 C 11,1 C 88 % 1006,7 hPa 0,0 l/m 0 min 0 min 0 W/m 29,0 km/h (5 Bft) 97,87 %
09.10.2019 19:14 12,1 C 11,7 C 11,1 C 88 % 1006,6 hPa 0,0 l/m 0 min 0 min 0 W/m 19,3 km/h (3 Bft) 97,87 %
09.10.2019 19:16 12,1 C 11,1 C 11,1 C 88 % 1006,7 hPa 0,0 l/m 0 min 0 min 0 W/m 25,7 km/h (4 Bft) 97,83 %
09.10.2019 19:18 12,1 C 11,1 C 11,1 C 88 % 1006,6 hPa 0,0 l/m 0 min 0 min 0 W/m 16,1 km/h (3 Bft) 97,87 %
09.10.2019 19:20 12,1 C 11,1 C 10,6 C 87 % 1006,6 hPa 0,0 l/m 0 min 0 min 0 W/m 19,3 km/h (3 Bft) 97,87 %
09.10.2019 19:22 12,1 C 11,1 C 10,6 C 87 % 1006,6 hPa 0,0 l/m 0 min 0 min 0 W/m 25,7 km/h (4 Bft) 95,74 %
09.10.2019 19:24 12,1 C 11,1 C 10,6 C 87 % 1006,6 hPa 0,0 l/m 0 min 0 min 0 W/m 16,1 km/h (3 Bft) 97,87 %
09.10.2019 19:26 12,0 C 11,1 C 10,6 C 87 % 1006,5 hPa 0,0 l/m 0 min 0 min 0 W/m 19,3 km/h (3 Bft) 97,14 %
09.10.2019 19:28 12,0 C 11,1 C 10,6 C 87 % 1006,6 hPa 0,0 l/m 0 min 0 min 0 W/m 19,3 km/h (3 Bft) 96,72 %
09.10.2019 19:30 12,0 C 11,1 C 10,6 C 87 % 1006,6 hPa 0,0 l/m 0 min 0 min 0 W/m 16,1 km/h (3 Bft) 97,87 %
09.10.2019 19:32 12,0 C 11,1 C 10,6 C 87 % 1006,7 hPa 0,0 l/m 0 min 0 min 0 W/m 16,1 km/h (3 Bft) 95,74 %
09.10.2019 19:34 12,0 C 11,1 C 10,6 C 87 % 1006,7 hPa 0,0 l/m 0 min 0 min 0 W/m 22,5 km/h (4 Bft) 91,49 %
09.10.2019 19:36 12,0 C 11,1 C 10,6 C 87 % 1006,8 hPa 0,0 l/m 0 min 0 min 0 W/m 22,5 km/h (4 Bft) 93,62 %
09.10.2019 19:38 12,0 C 11,1 C 10,6 C 87 % 1006,7 hPa 0,0 l/m 0 min 0 min 0 W/m 19,3 km/h (3 Bft) 95,65 %
09.10.2019 19:40 11,9 C 11,1 C 10,6 C 87 % 1006,8 hPa 0,0 l/m 0 min 0 min 0 W/m 19,3 km/h (3 Bft) 95,74 %
09.10.2019 19:42 12,0 C 11,1 C 10,6 C 87 % 1006,8 hPa 0,0 l/m 0 min 0 min 0 W/m 22,5 km/h (4 Bft) 95,74 %
09.10.2019 19:44 12,0 C 11,1 C 10,6 C 87 % 1006,7 hPa 0,0 l/m 0 min 0 min 0 W/m 19,3 km/h (3 Bft) 91,49 %
09.10.2019 19:46 12,0 C 11,1 C 10,6 C 87 % 1006,7 hPa 0,0 l/m 0 min 0 min 0 W/m 22,5 km/h (4 Bft) 95,74 %
09.10.2019 19:48 12,0 C 11,7 C 11,1 C 87 % 1006,8 hPa 0,0 l/m 0 min 0 min 0 W/m 25,7 km/h (4 Bft) 97,87 %
09.10.2019 19:50 12,0 C 11,7 C 11,1 C 87 % 1006,8 hPa 0,0 l/m 0 min 0 min 0 W/m 19,3 km/h (3 Bft) 95,65 %
09.10.2019 19:52 12,0 C 11,7 C 11,1 C 87 % 1006,8 hPa 0,0 l/m 0 min 0 min 0 W/m 25,7 km/h (4 Bft) 95,74 %
09.10.2019 19:54 12,0 C 11,1 C 10,6 C 87 % 1006,8 hPa 0,0 l/m 0 min 0 min 0 W/m 16,1 km/h (3 Bft) 93,62 %
09.10.2019 19:56 12,0 C 11,1 C 11,1 C 87 % 1006,8 hPa 0,0 l/m 0 min 0 min 0 W/m 22,5 km/h (4 Bft) 95,74 %
09.10.2019 19:58 12,0 C 11,1 C 11,1 C 87 % 1006,7 hPa 0,0 l/m 0 min 0 min 0 W/m 19,3 km/h (3 Bft) 91,49 %
09.10.2019 20:00 12,0 C 11,1 C 10,6 C 87 % 1006,8 hPa 0,0 l/m 0 min 0 min 0 W/m 29,0 km/h (5 Bft) 93,62 %
09.10.2019 20:02 12,0 C 11,1 C 10,6 C 87 % 1006,8 hPa 0,0 l/m 0 min 0 min 0 W/m 29,0 km/h (5 Bft) 93,48 %
09.10.2019 20:04 12,0 C 11,1 C 11,1 C 87 % 1006,8 hPa 0,0 l/m 0 min 0 min 0 W/m 29,0 km/h (5 Bft) 95,74 %
09.10.2019 20:06 12,0 C 11,1 C 11,1 C 86 % 1006,8 hPa 0,0 l/m 0 min 0 min 0 W/m 22,5 km/h (4 Bft) 95,74 %
09.10.2019 20:08 12,0 C 11,1 C 11,1 C 86 % 1006,8 hPa 0,0 l/m 0 min 0 min 0 W/m 29,0 km/h (5 Bft) 95,74 %
09.10.2019 20:10 12,0 C 11,1 C 10,6 C 86 % 1006,8 hPa 0,0 l/m 0 min 0 min 0 W/m 12,9 km/h (3 Bft) 95,74 %
09.10.2019 20:12 12,0 C 11,1 C 10,6 C 86 % 1006,8 hPa 0,0 l/m 0 min 0 min 0 W/m 19,3 km/h (3 Bft) 95,74 %
09.10.2019 20:14 12,0 C 11,1 C 10,6 C 86 % 1006,9 hPa 0,0 l/m 0 min 0 min 0 W/m 19,3 km/h (3 Bft) 95,65 %
09.10.2019 20:16 12,0 C 11,1 C 10,6 C 86 % 1006,8 hPa 0,0 l/m 0 min 0 min 0 W/m 16,1 km/h (3 Bft) 93,62 %
09.10.2019 20:18 12,0 C 11,1 C 10,6 C 86 % 1006,9 hPa 0,0 l/m 0 min 0 min 0 W/m 16,1 km/h (3 Bft) 93,62 %
09.10.2019 20:20 12,0 C 11,1 C 10,6 C 86 % 1006,9 hPa 0,0 l/m 0 min 0 min 0 W/m 12,9 km/h (3 Bft) 95,74 %
09.10.2019 20:22 12,0 C 11,1 C 10,6 C 86 % 1006,9 hPa 0,0 l/m 0 min 0 min 0 W/m 19,3 km/h (3 Bft) 95,74 %
09.10.2019 20:24 12,0 C 11,1 C 10,6 C 86 % 1007,0 hPa 0,0 l/m 0 min 0 min 0 W/m 12,9 km/h (3 Bft) 95,74 %
09.10.2019 20:26 12,0 C 11,1 C 10,6 C 86 % 1007,0 hPa 0,0 l/m 0 min 0 min 0 W/m 25,7 km/h (4 Bft) 95,65 %
09.10.2019 20:28 12,0 C 11,1 C 11,1 C 86 % 1006,9 hPa 0,0 l/m 0 min 0 min 0 W/m 19,3 km/h (3 Bft) 95,74 %
09.10.2019 20:30 12,0 C 11,1 C 11,1 C 86 % 1007,0 hPa 0,0 l/m 0 min 0 min 0 W/m 35,4 km/h (5 Bft) 95,74 %
09.10.2019 20:32 12,1 C 11,1 C 10,6 C 86 % 1007,0 hPa 0,0 l/m 0 min 0 min 0 W/m 29,0 km/h (5 Bft) 93,62 %
09.10.2019 20:34 12,0 C 11,1 C 10,6 C 86 % 1007,1 hPa 0,0 l/m 0 min 0 min 0 W/m 16,1 km/h (3 Bft) 97,87 %
09.10.2019 20:36 12,1 C 11,1 C 10,6 C 86 % 1007,1 hPa 0,0 l/m 0 min 2 min 0 W/m 19,3 km/h (3 Bft) 97,83 %
09.10.2019 20:38 12,0 C 10,6 C 10,6 C 86 % 1007,2 hPa 0,0 l/m 0 min 2 min 0 W/m 16,1 km/h (3 Bft) 100,00 %
09.10.2019 20:40 12,0 C 10,6 C 10,0 C 86 % 1007,2 hPa 0,0 l/m 0 min 2 min 0 W/m 16,1 km/h (3 Bft) 100,00 %
09.10.2019 20:42 12,0 C 10,6 C 10,0 C 87 % 1007,2 hPa 0,0 l/m 0 min 0 min 0 W/m 12,9 km/h (3 Bft) 97,87 %
09.10.2019 20:44 12,0 C 11,1 C 10,6 C 87 % 1007,2 hPa 0,0 l/m 0 min 0 min 0 W/m 19,3 km/h (3 Bft) 100,00 %
09.10.2019 20:46 12,0 C 11,1 C 10,6 C 87 % 1007,2 hPa 0,0 l/m 0 min 0 min 0 W/m 22,5 km/h (4 Bft) 95,74 %
09.10.2019 20:48 12,0 C 11,1 C 10,6 C 87 % 1007,2 hPa 0,0 l/m 0 min 0 min 0 W/m 12,9 km/h (3 Bft) 95,65 %
09.10.2019 20:50 11,9 C 11,1 C 10,6 C 87 % 1007,2 hPa 0,0 l/m 0 min 0 min 0 W/m 16,1 km/h (3 Bft) 97,87 %
09.10.2019 20:52 11,9 C 11,1 C 10,6 C 87 % 1007,3 hPa 0,0 l/m 0 min 0 min 0 W/m 19,3 km/h (3 Bft) 100,00 %
09.10.2019 20:54 11,9 C 11,1 C 10,6 C 87 % 1007,3 hPa 0,0 l/m 0 min 0 min 0 W/m 12,9 km/h (3 Bft) 97,87 %
09.10.2019 20:56 11,9 C 11,1 C 10,6 C 87 % 1007,3 hPa 0,0 l/m 0 min 0 min 0 W/m 19,3 km/h (3 Bft) 100,00 %
09.10.2019 20:58 11,9 C 11,1 C 10,6 C 87 % 1007,3 hPa 0,0 l/m 0 min 0 min 0 W/m 22,5 km/h (4 Bft) 100,00 %
09.10.2019 21:00 11,9 C 11,1 C 10,6 C 87 % 1007,3 hPa 0,0 l/m 0 min 0 min 0 W/m 12,9 km/h (3 Bft) 100,00 %
09.10.2019 21:02 11,9 C 11,1 C 10,6 C 87 % 1007,2 hPa 0,0 l/m 0 min 0 min 0 W/m 16,1 km/h (3 Bft) 100,00 %
09.10.2019 21:04 11,9 C 11,1 C 10,6 C 87 % 1007,3 hPa 0,0 l/m 0 min 0 min 0 W/m 16,1 km/h (3 Bft) 100,00 %
09.10.2019 21:06 11,9 C 11,1 C 10,6 C 87 % 1007,2 hPa 0,0 l/m 0 min 0 min 0 W/m 16,1 km/h (3 Bft) 100,00 %
09.10.2019 21:08 11,9 C 11,1 C 10,6 C 87 % 1007,3 hPa 0,0 l/m 0 min 0 min 0 W/m 19,3 km/h (3 Bft) 100,00 %
09.10.2019 21:10 11,9 C 11,1 C 10,6 C 87 % 1007,2 hPa 0,0 l/m 0 min 0 min 0 W/m 12,9 km/h (3 Bft) 100,00 %
09.10.2019 21:12 11,9 C 11,1 C 10,6 C 87 % 1007,3 hPa 0,0 l/m 0 min 0 min 0 W/m 12,9 km/h (3 Bft) 100,00 %
09.10.2019 21:14 11,9 C 11,1 C 10,6 C 87 % 1007,3 hPa 0,0 l/m 0 min 0 min 0 W/m 19,3 km/h (3 Bft) 100,00 %
09.10.2019 21:16 11,9 C 11,1 C 10,6 C 87 % 1007,3 hPa 0,0 l/m 0 min 0 min 0 W/m 12,9 km/h (3 Bft) 100,00 %
09.10.2019 21:18 11,9 C 11,1 C 10,6 C 87 % 1007,3 hPa 0,0 l/m 0 min 0 min 0 W/m 12,9 km/h (3 Bft) 100,00 %
09.10.2019 21:20 11,8 C 11,1 C 10,6 C 87 % 1007,3 hPa 0,0 l/m 0 min 0 min 0 W/m 16,1 km/h (3 Bft) 100,00 %
09.10.2019 21:22 11,8 C 11,1 C 10,6 C 87 % 1007,3 hPa 0,0 l/m 0 min 0 min 0 W/m 16,1 km/h (3 Bft) 100,00 %
09.10.2019 21:24 11,8 C 11,1 C 10,6 C 87 % 1007,3 hPa 0,0 l/m 0 min 0 min 0 W/m 12,9 km/h (3 Bft) 100,00 %
09.10.2019 21:26 11,8 C 11,1 C 10,6 C 87 % 1007,3 hPa 0,0 l/m 0 min 0 min 0 W/m 9,7 km/h (2 Bft) 100,00 %
09.10.2019 21:28 11,8 C 11,1 C 10,6 C 87 % 1007,4 hPa 0,0 l/m 0 min 0 min 0 W/m 12,9 km/h (3 Bft) 100,00 %
09.10.2019 21:30 11,8 C 11,1 C 10,6 C 87 % 1007,4 hPa 0,0 l/m 0 min 0 min 0 W/m 16,1 km/h (3 Bft) 100,00 %
09.10.2019 21:32 11,8 C 11,1 C 10,6 C 87 % 1007,4 hPa 0,0 l/m 0 min 0 min 0 W/m 19,3 km/h (3 Bft) 100,00 %
09.10.2019 21:34 11,8 C 11,1 C 10,6 C 87 % 1007,3 hPa 0,0 l/m 0 min 0 min 0 W/m 22,5 km/h (4 Bft) 100,00 %
09.10.2019 21:36 11,8 C 11,1 C 10,6 C 87 % 1007,3 hPa 0,0 l/m 0 min 0 min 0 W/m 25,7 km/h (4 Bft) 100,00 %
09.10.2019 21:38 11,8 C 11,1 C 10,6 C 87 % 1007,3 hPa 0,0 l/m 0 min 0 min 0 W/m 9,7 km/h (2 Bft) 100,00 %
09.10.2019 21:40 11,8 C 11,1 C 10,6 C 87 % 1007,4 hPa 0,0 l/m 0 min 0 min 0 W/m 25,7 km/h (4 Bft) 97,87 %
09.10.2019 21:42 11,8 C 11,1 C 10,6 C 87 % 1007,4 hPa 0,0 l/m 0 min 0 min 0 W/m 19,3 km/h (3 Bft) 97,87 %
09.10.2019 21:44 11,8 C 11,1 C 10,6 C 87 % 1007,3 hPa 0,0 l/m 0 min 0 min 0 W/m 16,1 km/h (3 Bft) 97,87 %
09.10.2019 21:46 11,8 C 11,1 C 10,6 C 87 % 1007,4 hPa 0,0 l/m 0 min 0 min 0 W/m 41,8 km/h (6 Bft) 95,65 %
09.10.2019 21:48 11,8 C 10,6 C 10,6 C 87 % 1007,4 hPa 0,0 l/m 0 min 0 min 0 W/m 25,7 km/h (4 Bft) 97,87 %
09.10.2019 21:50 11,8 C 10,6 C 10,6 C 88 % 1007,4 hPa 0,0 l/m 0 min 0 min 0 W/m 16,1 km/h (3 Bft) 97,87 %
09.10.2019 21:52 11,7 C 10,6 C 10,6 C 88 % 1007,3 hPa 0,0 l/m 0 min 0 min 0 W/m 19,3 km/h (3 Bft) 97,87 %
09.10.2019 21:54 11,7 C 10,6 C 10,6 C 88 % 1007,4 hPa 0,0 l/m 0 min 0 min 0 W/m 16,1 km/h (3 Bft) 97,87 %
09.10.2019 21:56 11,7 C 10,6 C 10,6 C 87 % 1007,4 hPa 0,0 l/m 0 min 0 min 0 W/m 29,0 km/h (5 Bft) 97,87 %
09.10.2019 21:58 11,7 C 10,6 C 10,0 C 87 % 1007,5 hPa 0,0 l/m 0 min 0 min 0 W/m 16,1 km/h (3 Bft) 97,83 %
09.10.2019 22:00 11,7 C 10,6 C 10,6 C 87 % 1007,5 hPa 0,0 l/m 0 min 0 min 0 W/m 16,1 km/h (3 Bft) 97,87 %
09.10.2019 22:02 11,7 C 10,6 C 10,0 C 88 % 1007,5 hPa 0,0 l/m 0 min 0 min 0 W/m 25,7 km/h (4 Bft) 97,87 %
09.10.2019 22:04 11,6 C 10,6 C 10,6 C 88 % 1007,5 hPa 0,0 l/m 0 min 0 min 0 W/m 19,3 km/h (3 Bft) 95,74 %
09.10.2019 22:06 11,6 C 10,6 C 10,6 C 88 % 1007,5 hPa 0,0 l/m 0 min 0 min 0 W/m 16,1 km/h (3 Bft) 97,87 %
09.10.2019 22:08 11,6 C 10,6 C 10,6 C 88 % 1007,5 hPa 0,0 l/m 0 min 0 min 0 W/m 19,3 km/h (3 Bft) 97,87 %
09.10.2019 22:10 11,6 C 10,6 C 10,6 C 88 % 1007,5 hPa 0,0 l/m 0 min 0 min 0 W/m 12,9 km/h (3 Bft) 97,83 %
09.10.2019 22:12 11,6 C 10,6 C 10,0 C 88 % 1007,5 hPa 0,0 l/m 0 min 0 min 0 W/m 6,4 km/h (2 Bft) 97,87 %
09.10.2019 22:14 11,6 C 10,6 C 10,0 C 88 % 1007,5 hPa 0,0 l/m 0 min 0 min 0 W/m 16,1 km/h (3 Bft) 97,87 %
09.10.2019 22:16 11,6 C 10,6 C 10,0 C 88 % 1007,5 hPa 0,0 l/m 0 min 0 min 0 W/m 19,3 km/h (3 Bft) 95,74 %
09.10.2019 22:18 11,5 C 10,6 C 10,0 C 88 % 1007,6 hPa 0,0 l/m 0 min 0 min 0 W/m 19,3 km/h (3 Bft) 97,87 %
09.10.2019 22:20 11,5 C 10,6 C 10,0 C 88 % 1007,5 hPa 0,0 l/m 0 min 0 min 0 W/m 6,4 km/h (2 Bft) 95,74 %
09.10.2019 22:22 11,5 C 10,6 C 10,0 C 88 % 1007,5 hPa 0,0 l/m 0 min 0 min 0 W/m 22,5 km/h (4 Bft) 95,65 %
09.10.2019 22:24 11,5 C 10,6 C 10,0 C 88 % 1007,5 hPa 0,0 l/m 0 min 0 min 0 W/m 12,9 km/h (3 Bft) 95,74 %
09.10.2019 22:26 11,4 C 10,6 C 10,0 C 88 % 1007,5 hPa 0,0 l/m 0 min 0 min 0 W/m 9,7 km/h (2 Bft) 97,87 %
09.10.2019 22:28 11,4 C 10,6 C 10,0 C 88 % 1007,5 hPa 0,0 l/m 0 min 0 min 0 W/m 19,3 km/h (3 Bft) 100,00 %
09.10.2019 22:30 11,4 C 10,6 C 10,0 C 88 % 1007,5 hPa 0,0 l/m 0 min 0 min 0 W/m 22,5 km/h (4 Bft) 97,87 %
09.10.2019 22:32 11,4 C 10,6 C 10,0 C 88 % 1007,5 hPa 0,0 l/m 0 min 0 min 0 W/m 19,3 km/h (3 Bft) 97,87 %
09.10.2019 22:34 11,4 C 10,6 C 10,0 C 88 % 1007,5 hPa 0,0 l/m 0 min 0 min 0 W/m 19,3 km/h (3 Bft) 95,65 %
09.10.2019 22:36 11,4 C 10,6 C 10,0 C 88 % 1007,6 hPa 0,0 l/m 0 min 0 min 0 W/m 16,1 km/h (3 Bft) 95,74 %
09.10.2019 22:38 11,3 C 10,6 C 10,0 C 88 % 1007,5 hPa 0,0 l/m 0 min 0 min 0 W/m 19,3 km/h (3 Bft) 95,74 %
09.10.2019 22:40 11,3 C 10,6 C 10,0 C 88 % 1007,5 hPa 0,0 l/m 0 min 0 min 0 W/m 12,9 km/h (3 Bft) 97,87 %
09.10.2019 22:42 11,3 C 10,6 C 10,0 C 88 % 1007,6 hPa 0,0 l/m 0 min 0 min 0 W/m 12,9 km/h (3 Bft) 93,62 %
09.10.2019 22:44 11,3 C 10,6 C 10,0 C 88 % 1007,6 hPa 0,0 l/m 0 min 0 min 0 W/m 19,3 km/h (3 Bft) 97,83 %
09.10.2019 22:46 11,3 C 10,0 C 10,0 C 89 % 1007,6 hPa 0,0 l/m 0 min 0 min 0 W/m 9,7 km/h (2 Bft) 97,87 %
09.10.2019 22:48 11,3 C 10,0 C 10,0 C 89 % 1007,6 hPa 0,0 l/m 0 min 0 min 0 W/m 16,1 km/h (3 Bft) 97,87 %
09.10.2019 22:50 11,2 C 10,0 C 10,0 C 89 % 1007,7 hPa 0,0 l/m 0 min 0 min 0 W/m 19,3 km/h (3 Bft) 95,74 %
09.10.2019 22:52 11,2 C 10,6 C 10,0 C 89 % 1007,6 hPa 0,0 l/m 0 min 0 min 0 W/m 22,5 km/h (4 Bft) 97,87 %
09.10.2019 22:54 11,2 C 10,6 C 10,0 C 89 % 1007,7 hPa 0,0 l/m 0 min 0 min 0 W/m 19,3 km/h (3 Bft) 95,74 %
09.10.2019 22:56 11,2 C 10,0 C 10,0 C 89 % 1007,6 hPa 0,0 l/m 0 min 0 min 0 W/m 9,7 km/h (2 Bft) 97,83 %
09.10.2019 22:58 11,2 C 10,0 C 10,0 C 89 % 1007,7 hPa 0,0 l/m 0 min 0 min 0 W/m 12,9 km/h (3 Bft) 97,87 %
09.10.2019 23:00 11,2 C 10,0 C 10,0 C 89 % 1007,7 hPa 0,0 l/m 0 min 0 min 0 W/m 16,1 km/h (3 Bft) 95,74 %
09.10.2019 23:02 11,2 C 10,0 C 10,0 C 89 % 1007,7 hPa 0,0 l/m 0 min 0 min 0 W/m 19,3 km/h (3 Bft) 97,87 %
09.10.2019 23:04 11,2 C 10,6 C 10,0 C 89 % 1007,7 hPa 0,0 l/m 0 min 0 min 0 W/m 12,9 km/h (3 Bft) 95,74 %
09.10.2019 23:06 11,2 C 10,6 C 10,0 C 89 % 1007,7 hPa 0,0 l/m 0 min 0 min 0 W/m 22,5 km/h (4 Bft) 97,87 %
09.10.2019 23:08 11,1 C 10,6 C 10,0 C 89 % 1007,7 hPa 0,0 l/m 0 min 0 min 0 W/m 19,3 km/h (3 Bft) 97,83 %
09.10.2019 23:10 11,1 C 10,6 C 10,0 C 89 % 1007,8 hPa 0,0 l/m 0 min 0 min 0 W/m 32,2 km/h (5 Bft) 95,74 %
09.10.2019 23:12 11,1 C 10,6 C 10,0 C 89 % 1007,7 hPa 0,0 l/m 0 min 0 min 0 W/m 22,5 km/h (4 Bft) 95,74 %
09.10.2019 23:14 11,1 C 10,6 C 10,0 C 89 % 1007,8 hPa 0,0 l/m 0 min 0 min 0 W/m 22,5 km/h (4 Bft) 95,74 %
09.10.2019 23:16 11,1 C 10,0 C 10,0 C 89 % 1007,7 hPa 0,0 l/m 0 min 0 min 0 W/m 19,3 km/h (3 Bft) 95,74 %
09.10.2019 23:18 11,1 C 10,6 C 10,0 C 89 % 1007,8 hPa 0,0 l/m 0 min 0 min 0 W/m 19,3 km/h (3 Bft) 95,74 %
09.10.2019 23:20 11,1 C 10,0 C 10,0 C 89 % 1007,7 hPa 0,0 l/m 0 min 0 min 0 W/m 25,7 km/h (4 Bft) 97,83 %
09.10.2019 23:22 11,1 C 10,0 C 10,0 C 89 % 1007,7 hPa 0,0 l/m 0 min 0 min 0 W/m 25,7 km/h (4 Bft) 97,87 %
09.10.2019 23:24 11,1 C 10,0 C 10,0 C 89 % 1007,8 hPa 0,0 l/m 0 min 0 min 0 W/m 22,5 km/h (4 Bft) 97,87 %
09.10.2019 23:26 11,1 C 10,0 C 10,0 C 89 % 1007,8 hPa 0,0 l/m 0 min 0 min 0 W/m 22,5 km/h (4 Bft) 95,74 %
09.10.2019 23:28 11,1 C 10,0 C 10,0 C 89 % 1007,8 hPa 0,0 l/m 0 min 0 min 0 W/m 19,3 km/h (3 Bft) 97,87 %
09.10.2019 23:30 11,1 C 10,0 C 10,0 C 89 % 1007,8 hPa 0,0 l/m 0 min 0 min 0 W/m 22,5 km/h (4 Bft) 97,87 %
09.10.2019 23:32 11,1 C 10,0 C 10,0 C 89 % 1007,8 hPa 0,0 l/m 0 min 0 min 0 W/m 19,3 km/h (3 Bft) 97,83 %
09.10.2019 23:34 11,1 C 10,0 C 10,0 C 89 % 1007,8 hPa 0,0 l/m 0 min 0 min 0 W/m 22,5 km/h (4 Bft) 97,87 %
09.10.2019 23:36 11,1 C 10,0 C 10,0 C 89 % 1007,8 hPa 0,0 l/m 0 min 0 min 0 W/m 29,0 km/h (5 Bft) 97,87 %
09.10.2019 23:38 11,0 C 10,0 C 9,4 C 89 % 1007,8 hPa 0,0 l/m 0 min 0 min 0 W/m 16,1 km/h (3 Bft) 97,87 %
09.10.2019 23:40 11,0 C 10,0 C 9,4 C 89 % 1007,8 hPa 0,0 l/m 0 min 0 min 0 W/m 19,3 km/h (3 Bft) 97,87 %
09.10.2019 23:42 11,0 C 10,0 C 9,4 C 89 % 1007,9 hPa 0,0 l/m 0 min 0 min 0 W/m 22,5 km/h (4 Bft) 97,87 %
09.10.2019 23:44 10,9 C 10,0 C 9,4 C 90 % 1007,8 hPa 0,0 l/m 0 min 0 min 0 W/m 16,1 km/h (3 Bft) 97,83 %
09.10.2019 23:46 10,9 C 10,0 C 9,4 C 90 % 1007,9 hPa 0,0 l/m 0 min 0 min 0 W/m 16,1 km/h (3 Bft) 97,87 %
09.10.2019 23:48 10,9 C 10,0 C 9,4 C 90 % 1007,9 hPa 0,0 l/m 0 min 0 min 0 W/m 22,5 km/h (4 Bft) 97,87 %
09.10.2019 23:50 10,9 C 10,0 C 9,4 C 90 % 1007,9 hPa 0,0 l/m 0 min 0 min 0 W/m 12,9 km/h (3 Bft) 97,87 %
09.10.2019 23:52 10,9 C 10,0 C 9,4 C 89 % 1007,9 hPa 0,0 l/m 0 min 0 min 0 W/m 19,3 km/h (3 Bft) 97,87 %
09.10.2019 23:55 10,8 C 10,0 C 9,4 C 90 % 1008,1 hPa 0,0 l/m 0 min 0 min 0 W/m 22,5 km/h (4 Bft) 97,40 %
09.10.2019 23:56 10,8 C 10,0 C 9,4 C 90 % 1008,1 hPa 0,0 l/m 0 min 0 min 0 W/m 19,3 km/h (3 Bft) 100,00 %
09.10.2019 23:58 10,8 C 10,0 C 9,4 C 90 % 1007,9 hPa 0,0 l/m 0 min 0 min 0 W/m 25,7 km/h (4 Bft) 97,87 %
_ Min-Zeit 07:26 06:18 06:58 14:06 14:58 - - - - 00:22 15:46
Minimum _ 10,8 C 10,0 C 9,4 C 77 % 1005,4 hPa - - - - 6,4 km/h (2 Bft) 54,55 %
_ Max-Zeit 13:32 13:22 13:22 00:00 05:26 15:08 10:06 12:08 13:22 13:52 01:38
Maximum _ 14,8 C 17,8 C 15,6 C 96 % 1009,2 hPa 0,2 l/m 2 min 4 min 497 W/m 45,1 km/h
S (6 Bft)
100,00 %
Durchschnitt _ 12,3 C 11,8 C 11,1 C 90 % 1007,6 hPa #0,6 l/m #1:18 h #58 min. 126 W/m 19,2 km/h (3 Bft) 97,44 %
© 2019 W. Hausmann